Observation data for Palo Duro Reservoir 1NW on 05/24/2020      Previous  Date  Next       Current Mesonet Observations  Soil Data  Daily Summary Page  Observations in Plain Language
KPD4 240500Z 19017KT 21/09 A2976 RMK A01 T02080094  RH  048%=      5-min Rain = 0
KPD4 240501Z 19018KT 21/09 A2976 RMK A01 T02080094  RH  048%=      5-min Rain = 0
KPD4 240502Z 19018KT 21/10 A2976 RMK A01 T02080095  RH  048%=      5-min Rain = 0
KPD4 240503Z 19018G24KT 21/10 A2976 RMK A01 T02080096  RH  049%=      5-min Rain = 0
KPD4 240504Z 19020KT 21/10 A2976 RMK A01 T02070096  RH  049%=      5-min Rain = 0
KPD4 240505Z 18019KT 21/10 A2976 RMK A01 T02070096  RH  049%=      5-min Rain = 0
KPD4 240506Z 19019KT 21/10 A2977 RMK A01 T02080097  RH  049%=      5-min Rain = 0
KPD4 240507Z 19018KT 21/10 A2976 RMK A01 T02070097  RH  049%=      5-min Rain = 0
KPD4 240508Z 19020KT 21/10 A2976 RMK A01 T02070098  RH  050%=      5-min Rain = 0
KPD4 240509Z 19020KT 21/10 A2976 RMK A01 T02070098  RH  050%=      5-min Rain = 0
KPD4 240510Z 19016KT 21/10 A2976 RMK A01 T02070099  RH  050%=      5-min Rain = 0
KPD4 240511Z 18018KT 21/10 A2976 RMK A01 T02070099  RH  050%=      5-min Rain = 0
KPD4 240512Z 18019KT 21/10 A2976 RMK A01 T02060099  RH  050%=      5-min Rain = 0
KPD4 240513Z 18020KT 21/10 A2976 RMK A01 T02060099  RH  050%=      5-min Rain = 0
KPD4 240514Z 18016G22KT 21/10 A2977 RMK A01 T02060100  RH  050%=      5-min Rain = 0
KPD4 240515Z 18015G20KT 21/10 A2976 RMK A01 T02060100  RH  051%=      5-min Rain = 0
KPD4 240516Z 18018G23KT 21/10 A2976 RMK A01 T02050100  RH  051%=      5-min Rain = 0
KPD4 240517Z 18016KT 21/10 A2977 RMK A01 T02050100  RH  051%=      5-min Rain = 0
KPD4 240518Z 18018G23KT 21/10 A2977 RMK A01 T02050100  RH  051%=      5-min Rain = 0
KPD4 240519Z 18018KT 21/10 A2977 RMK A01 T02050101  RH  051%=      5-min Rain = 0
KPD4 240520Z 18018KT 21/10 A2976 RMK A01 T02050101  RH  051%=      5-min Rain = 0
KPD4 240521Z 18018KT 21/10 A2976 RMK A01 T02050101  RH  051%=      5-min Rain = 0
KPD4 240522Z 18020KT 21/10 A2976 RMK A01 T02060101  RH  051%=      5-min Rain = 0
KPD4 240523Z 18019KT 21/10 A2977 RMK A01 T02060101  RH  051%=      5-min Rain = 0
KPD4 240524Z 18018KT 21/10 A2977 RMK A01 T02060101  RH  051%=      5-min Rain = 0
KPD4 240525Z 17016KT 21/10 A2977 RMK A01 T02060101  RH  051%=      5-min Rain = 0
KPD4 240526Z 18018KT 21/10 A2977 RMK A01 T02060101  RH  051%=      5-min Rain = 0
KPD4 240527Z 18019KT 21/10 A2977 RMK A01 T02050101  RH  051%=      5-min Rain = 0
KPD4 240528Z 18017KT 21/10 A2977 RMK A01 T02050101  RH  051%=      5-min Rain = 0
KPD4 240529Z 18017KT 21/10 A2977 RMK A01 T02060101  RH  051%=      5-min Rain = 0
KPD4 240530Z 18019KT 21/10 A2977 RMK A01 T02050100  RH  051%=      5-min Rain = 0
KPD4 240531Z 18017KT 21/10 A2977 RMK A01 T02050100  RH  051%=      5-min Rain = 0
KPD4 240532Z 18020KT 21/10 A2976 RMK A01 T02050100  RH  051%=      5-min Rain = 0
KPD4 240533Z 18018G24KT 21/10 A2976 RMK A01 T02050100  RH  051%=      5-min Rain = 0
KPD4 240534Z 18019KT 21/10 A2976 RMK A01 T02060100  RH  051%=      5-min Rain = 0
KPD4 240535Z 17017G22KT 21/10 A2976 RMK A01 T02060100  RH  050%=      5-min Rain = 0
KPD4 240536Z 17020G26KT 21/10 A2976 RMK A01 T02060099  RH  050%=      5-min Rain = 0
KPD4 240537Z 18020KT 21/10 A2976 RMK A01 T02060099  RH  050%=      5-min Rain = 0
KPD4 240538Z 18019KT 21/10 A2976 RMK A01 T02070099  RH  050%=      5-min Rain = 0
KPD4 240539Z 17018KT 21/10 A2976 RMK A01 T02070098  RH  050%=      5-min Rain = 0
KPD4 240540Z 17017G22KT 21/10 A2976 RMK A01 T02070099  RH  050%=      5-min Rain = 0
KPD4 240541Z 17018G23KT 21/10 A2976 RMK A01 T02060098  RH  050%=      5-min Rain = 0
KPD4 240542Z 18017KT 21/10 A2976 RMK A01 T02060098  RH  050%=      5-min Rain = 0
KPD4 240543Z 17016KT 21/10 A2976 RMK A01 T02060098  RH  050%=      5-min Rain = 0
KPD4 240544Z 18017KT 21/10 A2976 RMK A01 T02060099  RH  050%=      5-min Rain = 0
KPD4 240545Z 18017KT 21/10 A2976 RMK A01 T02060098  RH  050%=      5-min Rain = 0
KPD4 240546Z 18018KT 21/10 A2976 RMK A01 T02060098  RH  050%=      5-min Rain = 0
KPD4 240547Z 18017KT 21/10 A2976 RMK A01 T02050098  RH  050%=      5-min Rain = 0
KPD4 240548Z 17017KT 21/10 A2976 RMK A01 T02050098  RH  050%=      5-min Rain = 0
KPD4 240549Z 18017KT 21/10 A2976 RMK A01 T02050098  RH  050%=      5-min Rain = 0
KPD4 240550Z 17016KT 20/10 A2977 RMK A01 T02040098  RH  050%=      5-min Rain = 0
KPD4 240551Z 17016KT 20/10 A2977 RMK A01 T02040098  RH  050%=      5-min Rain = 0
KPD4 240552Z 17018KT 20/10 A2976 RMK A01 T02040098  RH  051%=      5-min Rain = 0
KPD4 240553Z 17018KT 20/10 A2976 RMK A01 T02040098  RH  050%=      5-min Rain = 0
KPD4 240554Z 17017KT 21/10 A2976 RMK A01 T02050098  RH  050%=      5-min Rain = 0
KPD4 240555Z 17019G27KT 20/10 A2976 RMK A01 T02040098  RH  050%=      5-min Rain = 0
KPD4 240556Z 17017KT 21/10 A2976 RMK A01 T02050097  RH  050%=      5-min Rain = 0
KPD4 240557Z 17018KT 21/10 A2976 RMK A01 T02050097  RH  050%=      5-min Rain = 0
KPD4 240558Z 16018KT 21/10 A2977 RMK A01 T02050098  RH  050%=      5-min Rain = 0
KPD4 240559Z 17018KT 20/10 A2977 RMK A01 T02040097  RH  050%=      5-min Rain = 0
KPD4 240600Z 16016KT 20/10 A2977 RMK A01 T02040097  RH  050%=      5-min Rain = 0
KPD4 240601Z 16018G23KT 20/10 A2977 RMK A01 T02040097  RH  050%=      5-min Rain = 0
KPD4 240602Z 16020KT 20/10 A2977 RMK A01 T02040097  RH  050%=      5-min Rain = 0
KPD4 240603Z 16017G24KT 21/10 A2977 RMK A01 T02050097  RH  050%=      5-min Rain = 0
KPD4 240604Z 16017G24KT 21/10 A2977 RMK A01 T02050097  RH  050%=      5-min Rain = 0
KPD4 240605Z 16019KT 20/10 A2977 RMK A01 T02040096  RH  050%=      5-min Rain = 0
KPD4 240606Z 16018KT 20/10 A2977 RMK A01 T02040097  RH  050%=      5-min Rain = 0
KPD4 240607Z 16018G25KT 20/10 A2977 RMK A01 T02040097  RH  050%=      5-min Rain = 0
KPD4 240608Z 16018KT 20/10 A2977 RMK A01 T02030097  RH  050%=      5-min Rain = 0
KPD4 240609Z 16019KT 20/10 A2977 RMK A01 T02040097  RH  050%=      5-min Rain = 0
KPD4 240610Z 16018KT 20/10 A2977 RMK A01 T02040097  RH  050%=      5-min Rain = 0
KPD4 240611Z 15018KT 20/10 A2977 RMK A01 T02030097  RH  050%=      5-min Rain = 0
KPD4 240612Z 16017G24KT 20/10 A2977 RMK A01 T02040098  RH  051%=      5-min Rain = 0
KPD4 240613Z 15019G25KT 20/10 A2977 RMK A01 T02030098  RH  051%=      5-min Rain = 0
KPD4 240614Z 15021KT 20/10 A2978 RMK A01 T02030098  RH  051%=      5-min Rain = 0
KPD4 240615Z 15023KT 20/10 A2978 RMK A01 T02030097  RH  051%=      5-min Rain = 0
KPD4 240616Z 15019KT 20/10 A2978 RMK A01 T02040097  RH  050%=      5-min Rain = 0
KPD4 240617Z 15022KT 20/10 A2977 RMK A01 T02040098  RH  050%=      5-min Rain = 0
KPD4 240618Z 15020G26KT 20/10 A2978 RMK A01 T02040098  RH  050%=      5-min Rain = 0
KPD4 240619Z 15020KT 20/10 A2978 RMK A01 T02040098  RH  051%=      5-min Rain = 0
KPD4 240620Z 15019G25KT 20/10 A2978 RMK A01 T02040098  RH  051%=      5-min Rain = 0
KPD4 240621Z 15019KT 20/10 A2978 RMK A01 T02030098  RH  051%=      5-min Rain = 0
KPD4 240622Z 16020KT 20/10 A2978 RMK A01 T02030098  RH  051%=      5-min Rain = 0
KPD4 240623Z 15021G26KT 20/10 A2978 RMK A01 T02030097  RH  051%=      5-min Rain = 0
KPD4 240624Z 16022G27KT 20/10 A2978 RMK A01 T02030098  RH  051%=      5-min Rain = 0
KPD4 240625Z 16021G27KT 20/10 A2978 RMK A01 T02030097  RH  050%=      5-min Rain = 0
KPD4 240626Z 16021KT 20/10 A2978 RMK A01 T02040097  RH  050%=      5-min Rain = 0
KPD4 240627Z 16025KT 20/10 A2978 RMK A01 T02040097  RH  050%=      5-min Rain = 0
KPD4 240628Z 16022G28KT 20/10 A2978 RMK A01 T02040097  RH  050%=      5-min Rain = 0
KPD4 240629Z 15022G27KT 20/10 A2978 RMK A01 T02040097  RH  050%=      5-min Rain = 0
KPD4 240630Z 16016KT 20/10 A2978 RMK A01 T02040098  RH  050%=      5-min Rain = 0
KPD4 240631Z 15020KT 20/10 A2978 RMK A01 T02040099  RH  051%=      5-min Rain = 0
KPD4 240632Z 15019KT 20/10 A2978 RMK A01 T02040098  RH  051%=      5-min Rain = 0
KPD4 240633Z 15020G26KT 20/10 A2978 RMK A01 T02040098  RH  051%=      5-min Rain = 0
KPD4 240634Z 15022KT 20/10 A2978 RMK A01 T02040098  RH  051%=      5-min Rain = 0
KPD4 240635Z 15018KT 20/10 A2978 RMK A01 T02040098  RH  050%=      5-min Rain = 0
KPD4 240636Z 15018KT 20/10 A2979 RMK A01 T02040098  RH  051%=      5-min Rain = 0
KPD4 240637Z 15020G27KT 20/10 A2979 RMK A01 T02040099  RH  051%=      5-min Rain = 0
KPD4 240638Z 15021KT 20/10 A2979 RMK A01 T02040099  RH  051%=      5-min Rain = 0
KPD4 240639Z 15018G24KT 20/10 A2979 RMK A01 T02040100  RH  051%=      5-min Rain = 0
KPD4 240640Z 15019KT 20/10 A2979 RMK A01 T02040099  RH  051%=      5-min Rain = 0
KPD4 240641Z 15018KT 20/10 A2979 RMK A01 T02040099  RH  051%=      5-min Rain = 0
KPD4 240642Z 15016KT 20/10 A2979 RMK A01 T02030099  RH  051%=      5-min Rain = 0
KPD4 240643Z 16017G22KT 20/10 A2979 RMK A01 T02030099  RH  051%=      5-min Rain = 0
KPD4 240644Z 16016KT 20/10 A2979 RMK A01 T02030099  RH  051%=      5-min Rain = 0
KPD4 240645Z 15015KT 20/10 A2979 RMK A01 T02030099  RH  051%=      5-min Rain = 0
KPD4 240646Z 16020KT 20/10 A2979 RMK A01 T02020099  RH  051%=      5-min Rain = 0
KPD4 240647Z 16017KT 20/10 A2979 RMK A01 T02020099  RH  051%=      5-min Rain = 0
KPD4 240648Z 16019KT 20/10 A2979 RMK A01 T02030098  RH  051%=      5-min Rain = 0
KPD4 240649Z 16016G21KT 20/10 A2979 RMK A01 T02030099  RH  051%=      5-min Rain = 0
KPD4 240650Z 16017KT 20/10 A2979 RMK A01 T02030099  RH  051%=      5-min Rain = 0
KPD4 240651Z 16017G22KT 20/10 A2979 RMK A01 T02030099  RH  051%=      5-min Rain = 0
KPD4 240652Z 16019KT 20/10 A2979 RMK A01 T02030099  RH  051%=      5-min Rain = 0
KPD4 240653Z 16016KT 20/10 A2979 RMK A01 T02030099  RH  051%=      5-min Rain = 0
KPD4 240654Z 16019KT 20/10 A2979 RMK A01 T02020099  RH  051%=      5-min Rain = 0
KPD4 240655Z 16018G23KT 20/10 A2979 RMK A01 T02020099  RH  051%=      5-min Rain = 0
KPD4 240656Z 16016G22KT 20/10 A2979 RMK A01 T02020099  RH  051%=      5-min Rain = 0
KPD4 240657Z 16016KT 20/10 A2979 RMK A01 T02020099  RH  051%=      5-min Rain = 0
KPD4 240658Z 17017KT 20/10 A298 RMK A01 T02020099  RH  052%=      5-min Rain = 0
KPD4 240659Z 17013KT 20/10 A298 RMK A01 T02010099  RH  052%=      5-min Rain = 0
KPD4 240700Z 17014KT 20/10 A298 RMK A01 T02000099  RH  052%=      5-min Rain = 0
KPD4 240701Z 17016KT 20/10 A298 RMK A01 T02000099  RH  052%=      5-min Rain = 0
KPD4 240702Z 17012KT 20/10 A298 RMK A01 T02000100  RH  052%=      5-min Rain = 0
KPD4 240703Z 16014KT 20/10 A298 RMK A01 T01990099  RH  053%=      5-min Rain = 0
KPD4 240704Z 17014KT 20/10 A298 RMK A01 T01980100  RH  053%=      5-min Rain = 0
KPD4 240705Z 17014KT 20/10 A298 RMK A01 T01980100  RH  053%=      5-min Rain = 0
KPD4 240706Z 17013KT 20/10 A298 RMK A01 T01980100  RH  053%=      5-min Rain = 0
KPD4 240707Z 17014KT 20/10 A298 RMK A01 T01970100  RH  053%=      5-min Rain = 0
KPD4 240708Z 16015KT 20/10 A298 RMK A01 T01970100  RH  054%=      5-min Rain = 0
KPD4 240709Z 17015KT 20/10 A298 RMK A01 T01970100  RH  053%=      5-min Rain = 0
KPD4 240710Z 17013KT 20/10 A298 RMK A01 T01970100  RH  053%=      5-min Rain = 0
KPD4 240711Z 17013KT 20/10 A298 RMK A01 T01970100  RH  054%=      5-min Rain = 0
KPD4 240712Z 17014KT 20/10 A298 RMK A01 T01960100  RH  054%=      5-min Rain = 0
KPD4 240713Z 17016KT 20/10 A298 RMK A01 T01960100  RH  054%=      5-min Rain = 0
KPD4 240714Z 17015KT 20/10 A298 RMK A01 T01970100  RH  054%=      5-min Rain = 0
KPD4 240715Z 17014KT 20/10 A298 RMK A01 T01970100  RH  054%=      5-min Rain = 0
KPD4 240716Z 18015G20KT 20/10 A298 RMK A01 T01960100  RH  054%=      5-min Rain = 0
KPD4 240717Z 18016KT 20/10 A298 RMK A01 T01960100  RH  054%=      5-min Rain = 0
KPD4 240718Z 17015KT 20/10 A298 RMK A01 T01960100  RH  054%=      5-min Rain = 0
KPD4 240719Z 18013KT 20/10 A298 RMK A01 T01960100  RH  054%=      5-min Rain = 0
KPD4 240720Z 18017G22KT 20/10 A298 RMK A01 T01960100  RH  054%=      5-min Rain = 0
KPD4 240721Z 17018KT 20/10 A298 RMK A01 T01960100  RH  054%=      5-min Rain = 0
KPD4 240722Z 18017KT 20/10 A298 RMK A01 T01970100  RH  053%=      5-min Rain = 0
KPD4 240723Z 18016KT 20/10 A298 RMK A01 T01970100  RH  053%=      5-min Rain = 0
KPD4 240724Z 17017KT 20/10 A298 RMK A01 T01970100  RH  053%=      5-min Rain = 0
KPD4 240725Z 17017KT 20/10 A298 RMK A01 T01960100  RH  054%=      5-min Rain = 0
KPD4 240726Z 17018G25KT 20/10 A298 RMK A01 T01960100  RH  054%=      5-min Rain = 0
KPD4 240727Z 17018G23KT 20/10 A298 RMK A01 T01960100  RH  054%=      5-min Rain = 0
KPD4 240728Z 17019KT 20/10 A2979 RMK A01 T01960100  RH  054%=      5-min Rain = 0
KPD4 240729Z 17016KT 20/10 A2979 RMK A01 T01960100  RH  054%=      5-min Rain = 0
KPD4 240730Z 17017KT 20/10 A2979 RMK A01 T01960100  RH  054%=      5-min Rain = 0
KPD4 240731Z 17018KT 20/10 A2979 RMK A01 T01960100  RH  054%=      5-min Rain = 0
KPD4 240732Z 17019KT 20/10 A2979 RMK A01 T01960100  RH  054%=      5-min Rain = 0
KPD4 240733Z 17017KT 20/10 A2979 RMK A01 T01950100  RH  054%=      5-min Rain = 0
KPD4 240734Z 17020KT 20/10 A2979 RMK A01 T01950100  RH  054%=      5-min Rain = 0
KPD4 240735Z 17019KT 20/10 A2979 RMK A01 T01950100  RH  054%=      5-min Rain = 0
KPD4 240736Z 17017KT 20/10 A2979 RMK A01 T01960100  RH  054%=      5-min Rain = 0
KPD4 240737Z 17019KT 20/10 A2978 RMK A01 T01950100  RH  054%=      5-min Rain = 0
KPD4 240738Z 17016G21KT 20/10 A2979 RMK A01 T01950100  RH  054%=      5-min Rain = 0
KPD4 240739Z 17016G22KT 20/10 A2979 RMK A01 T01950100  RH  054%=      5-min Rain = 0
KPD4 240740Z 17015KT 19/10 A2979 RMK A01 T01940100  RH  054%=      5-min Rain = 0
KPD4 240741Z 17017G22KT 19/10 A2979 RMK A01 T01940100  RH  055%=      5-min Rain = 0
KPD4 240742Z 16017KT 19/10 A2979 RMK A01 T01940100  RH  055%=      5-min Rain = 0
KPD4 240743Z 17017KT 19/10 A2979 RMK A01 T01940100  RH  055%=      5-min Rain = 0
KPD4 240744Z 17016G21KT 19/10 A2979 RMK A01 T01930100  RH  055%=      5-min Rain = 0
KPD4 240745Z 17016KT 19/10 A2979 RMK A01 T01930100  RH  055%=      5-min Rain = 0
KPD4 240746Z 16014KT 19/10 A2979 RMK A01 T01930100  RH  055%=      5-min Rain = 0
KPD4 240747Z 16015KT 19/10 A2979 RMK A01 T01920100  RH  055%=      5-min Rain = 0
KPD4 240748Z 16017G22KT 19/10 A2978 RMK A01 T01920100  RH  055%=      5-min Rain = 0
KPD4 240749Z 16015KT 19/10 A2978 RMK A01 T01920100  RH  055%=      5-min Rain = 0
KPD4 240750Z 17015KT 19/10 A2978 RMK A01 T01920100  RH  055%=      5-min Rain = 0
KPD4 240751Z 16015KT 19/10 A2978 RMK A01 T01910100  RH  056%=      5-min Rain = 0
KPD4 240752Z 17016G21KT 19/10 A2978 RMK A01 T01910101  RH  056%=      5-min Rain = 0
KPD4 240753Z 17015KT 19/10 A2978 RMK A01 T01910100  RH  056%=      5-min Rain = 0
KPD4 240754Z 17015KT 19/10 A2978 RMK A01 T01910100  RH  056%=      5-min Rain = 0
KPD4 240755Z 17015KT 19/10 A2978 RMK A01 T01910100  RH  056%=      5-min Rain = 0
KPD4 240756Z 16014KT 19/10 A2978 RMK A01 T01910100  RH  056%=      5-min Rain = 0
KPD4 240757Z 17014KT 19/10 A2978 RMK A01 T01900100  RH  056%=      5-min Rain = 0
KPD4 240758Z 16017KT 19/10 A2978 RMK A01 T01900100  RH  056%=      5-min Rain = 0
KPD4 240759Z 16017KT 19/10 A2978 RMK A01 T01900100  RH  056%=      5-min Rain = 0
KPD4 240800Z 16015KT 19/10 A2978 RMK A01 T01900100  RH  056%=      5-min Rain = 0
KPD4 240801Z 16016KT 19/10 A2978 RMK A01 T01900100  RH  056%=      5-min Rain = 0
KPD4 240802Z 17016KT 19/10 A2978 RMK A01 T01900100  RH  056%=      5-min Rain = 0
KPD4 240803Z 17015KT 19/10 A2978 RMK A01 T01900101  RH  056%=      5-min Rain = 0
KPD4 240804Z 17016G21KT 19/10 A2978 RMK A01 T01900101  RH  056%=      5-min Rain = 0
KPD4 240805Z 17015KT 19/10 A2978 RMK A01 T01890100  RH  056%=      5-min Rain = 0
KPD4 240806Z 16013KT 19/10 A2978 RMK A01 T01890101  RH  056%=      5-min Rain = 0
KPD4 240807Z 16013G18KT 19/10 A2978 RMK A01 T01890101  RH  057%=      5-min Rain = 0
KPD4 240808Z 17015KT 19/10 A2978 RMK A01 T01880101  RH  057%=      5-min Rain = 0
KPD4 240809Z 17014KT 19/10 A2978 RMK A01 T01880101  RH  057%=      5-min Rain = 0
KPD4 240810Z 17014KT 19/10 A2978 RMK A01 T01880102  RH  057%=      5-min Rain = 0
KPD4 240811Z 16015KT 19/10 A2978 RMK A01 T01870101  RH  057%=      5-min Rain = 0
KPD4 240812Z 17014KT 19/10 A2978 RMK A01 T01870101  RH  057%=      5-min Rain = 0
KPD4 240813Z 17013KT 19/10 A2978 RMK A01 T01870101  RH  057%=      5-min Rain = 0
KPD4 240814Z 17015G20KT 19/10 A2978 RMK A01 T01870101  RH  058%=      5-min Rain = 0
KPD4 240815Z 17014KT 19/10 A2978 RMK A01 T01870102  RH  058%=      5-min Rain = 0
KPD4 240816Z 17013KT 19/10 A2978 RMK A01 T01870102  RH  058%=      5-min Rain = 0
KPD4 240817Z 17015KT 19/10 A2978 RMK A01 T01860102  RH  058%=      5-min Rain = 0
KPD4 240818Z 17014KT 19/10 A2979 RMK A01 T01860102  RH  058%=      5-min Rain = 0
KPD4 240819Z 17015KT 19/10 A2979 RMK A01 T01860102  RH  058%=      5-min Rain = 0
KPD4 240820Z 17013KT 19/10 A2979 RMK A01 T01860102  RH  058%=      5-min Rain = 0
KPD4 240821Z 17013KT 19/10 A2979 RMK A01 T01860103  RH  058%=      5-min Rain = 0
KPD4 240822Z 17014KT 19/10 A2979 RMK A01 T01850103  RH  059%=      5-min Rain = 0
KPD4 240823Z 17014KT 19/10 A2979 RMK A01 T01850103  RH  059%=      5-min Rain = 0
KPD4 240824Z 17013KT 19/10 A2979 RMK A01 T01850103  RH  059%=      5-min Rain = 0
KPD4 240825Z 17013KT 19/10 A2979 RMK A01 T01850103  RH  059%=      5-min Rain = 0
KPD4 240826Z 17014KT 19/10 A2979 RMK A01 T01850103  RH  059%=      5-min Rain = 0
KPD4 240827Z 17012KT 18/10 A2979 RMK A01 T01840103  RH  059%=      5-min Rain = 0
KPD4 240828Z 17015KT 18/10 A2979 RMK A01 T01840103  RH  059%=      5-min Rain = 0
KPD4 240829Z 17014KT 18/10 A2979 RMK A01 T01840103  RH  059%=      5-min Rain = 0
KPD4 240830Z 18013KT 18/10 A2979 RMK A01 T01830103  RH  059%=      5-min Rain = 0
KPD4 240831Z 17014KT 18/10 A2979 RMK A01 T01830103  RH  059%=      5-min Rain = 0
KPD4 240832Z 17015KT 18/10 A2979 RMK A01 T01830103  RH  059%=      5-min Rain = 0
KPD4 240833Z 17015KT 18/10 A2979 RMK A01 T01830103  RH  059%=      5-min Rain = 0
KPD4 240834Z 18016G21KT 18/10 A2979 RMK A01 T01840103  RH  059%=      5-min Rain = 0
KPD4 240835Z 17014KT 18/10 A2979 RMK A01 T01830103  RH  059%=      5-min Rain = 0
KPD4 240836Z 17014KT 18/10 A2979 RMK A01 T01840103  RH  059%=      5-min Rain = 0
KPD4 240837Z 17017KT 18/10 A2979 RMK A01 T01840103  RH  060%=      5-min Rain = 0
KPD4 240838Z 17015KT 18/10 A2979 RMK A01 T01840104  RH  060%=      5-min Rain = 0
KPD4 240839Z 18014KT 18/10 A2979 RMK A01 T01840104  RH  060%=      5-min Rain = 0
KPD4 240840Z 17014G19KT 18/10 A2979 RMK A01 T01830104  RH  060%=      5-min Rain = 0
KPD4 240841Z 17017KT 18/10 A2979 RMK A01 T01830104  RH  060%=      5-min Rain = 0
KPD4 240842Z 17016KT 18/10 A2979 RMK A01 T01830104  RH  060%=      5-min Rain = 0
KPD4 240843Z 17016G23KT 18/10 A2979 RMK A01 T01830104  RH  060%=      5-min Rain = 0
KPD4 240844Z 17017KT 18/10 A2979 RMK A01 T01840104  RH  060%=      5-min Rain = 0
KPD4 240845Z 17015KT 18/11 A2979 RMK A01 T01840105  RH  060%=      5-min Rain = 0
KPD4 240846Z 17016KT 18/11 A2979 RMK A01 T01840105  RH  060%=      5-min Rain = 0
KPD4 240847Z 17018KT 18/11 A298 RMK A01 T01830105  RH  060%=      5-min Rain = 0
KPD4 240848Z 17019G24KT 18/11 A298 RMK A01 T01830105  RH  060%=      5-min Rain = 0
KPD4 240849Z 17017KT 18/11 A2979 RMK A01 T01840105  RH  060%=      5-min Rain = 0
KPD4 240850Z 17018KT 18/11 A2979 RMK A01 T01840106  RH  060%=      5-min Rain = 0
KPD4 240851Z 17017KT 18/11 A2979 RMK A01 T01840105  RH  060%=      5-min Rain = 0
KPD4 240852Z 16019KT 18/11 A2979 RMK A01 T01840105  RH  060%=      5-min Rain = 0
KPD4 240853Z 17019G24KT 18/11 A298 RMK A01 T01840106  RH  060%=      5-min Rain = 0
KPD4 240854Z 17017KT 18/11 A298 RMK A01 T01840106  RH  060%=      5-min Rain = 0
KPD4 240855Z 17019KT 18/11 A298 RMK A01 T01840106  RH  060%=      5-min Rain = 0
KPD4 240856Z 17021KT 18/11 A298 RMK A01 T01840106  RH  060%=      5-min Rain = 0
KPD4 240857Z 17018G24KT 18/11 A298 RMK A01 T01840106  RH  060%=      5-min Rain = 0
KPD4 240858Z 17018KT 18/11 A298 RMK A01 T01840106  RH  060%=      5-min Rain = 0
KPD4 240859Z 17017G22KT 18/11 A298 RMK A01 T01840106  RH  061%=      5-min Rain = 0
KPD4 240900Z 17018KT 18/11 A298 RMK A01 T01830106  RH  061%=      5-min Rain = 0
KPD4 240901Z 18019KT 18/11 A298 RMK A01 T01830106  RH  061%=      5-min Rain = 0
KPD4 240902Z 18018KT 18/11 A298 RMK A01 T01830106  RH  061%=      5-min Rain = 0
KPD4 240903Z 17018KT 18/11 A298 RMK A01 T01830107  RH  061%=      5-min Rain = 0
KPD4 240904Z 17018G23KT 18/11 A298 RMK A01 T01830107  RH  061%=      5-min Rain = 0
KPD4 240905Z 17016G22KT 18/11 A298 RMK A01 T01830107  RH  061%=      5-min Rain = 0
KPD4 240906Z 17018KT 18/11 A2979 RMK A01 T01820107  RH  061%=      5-min Rain = 0
KPD4 240907Z 16016G22KT 18/11 A2979 RMK A01 T01820107  RH  062%=      5-min Rain = 0
KPD4 240908Z 16018KT 18/11 A2979 RMK A01 T01820107  RH  062%=      5-min Rain = 0
KPD4 240909Z 17017KT 18/11 A2979 RMK A01 T01810107  RH  062%=      5-min Rain = 0
KPD4 240910Z 17018KT 18/11 A2979 RMK A01 T01810107  RH  062%=      5-min Rain = 0
KPD4 240911Z 17018G23KT 18/11 A2979 RMK A01 T01810108  RH  062%=      5-min Rain = 0
KPD4 240912Z 17019KT 18/11 A2979 RMK A01 T01810108  RH  062%=      5-min Rain = 0
KPD4 240913Z 17016KT 18/11 A2979 RMK A01 T01810108  RH  062%=      5-min Rain = 0
KPD4 240914Z 18017G22KT 18/11 A2979 RMK A01 T01800108  RH  062%=      5-min Rain = 0
KPD4 240915Z 17019KT 18/11 A2979 RMK A01 T01800108  RH  063%=      5-min Rain = 0
KPD4 240916Z 17017KT 18/11 A2979 RMK A01 T01800108  RH  063%=      5-min Rain = 0
KPD4 240917Z 17020KT 18/11 A2979 RMK A01 T01800108  RH  063%=      5-min Rain = 0
KPD4 240918Z 17017KT 18/11 A2979 RMK A01 T01800108  RH  063%=      5-min Rain = 0
KPD4 240919Z 17020KT 18/11 A2979 RMK A01 T01800108  RH  063%=      5-min Rain = 0
KPD4 240920Z 17020KT 18/11 A2979 RMK A01 T01790108  RH  063%=      5-min Rain = 0
KPD4 240921Z 17018G23KT 18/11 A2979 RMK A01 T01800109  RH  063%=      5-min Rain = 0
KPD4 240922Z 18019G24KT 18/11 A2979 RMK A01 T01790108  RH  063%=      5-min Rain = 0
KPD4 240923Z 18016KT 18/11 A2979 RMK A01 T01790108  RH  063%=      5-min Rain = 0
KPD4 240924Z 18016KT 18/11 A298 RMK A01 T01790108  RH  063%=      5-min Rain = 0
KPD4 240925Z 18018G23KT 18/11 A298 RMK A01 T01780109  RH  064%=      5-min Rain = 0
KPD4 240926Z 18018KT 18/11 A298 RMK A01 T01780109  RH  064%=      5-min Rain = 0
KPD4 240927Z 18018KT 18/11 A298 RMK A01 T01780109  RH  064%=      5-min Rain = 0
KPD4 240928Z 17017KT 18/11 A298 RMK A01 T01780109  RH  064%=      5-min Rain = 0
KPD4 240929Z 18017KT 18/11 A298 RMK A01 T01780108  RH  064%=      5-min Rain = 0
KPD4 240930Z 18015KT 18/11 A298 RMK A01 T01780109  RH  064%=      5-min Rain = 0
KPD4 240931Z 18019KT 18/11 A298 RMK A01 T01770109  RH  064%=      5-min Rain = 0
KPD4 240932Z 18019KT 18/11 A298 RMK A01 T01770109  RH  064%=      5-min Rain = 0
KPD4 240933Z 18016KT 18/11 A298 RMK A01 T01780109  RH  064%=      5-min Rain = 0
KPD4 240934Z 18014KT 18/11 A298 RMK A01 T01780109  RH  064%=      5-min Rain = 0
KPD4 240935Z 18015KT 18/11 A298 RMK A01 T01770109  RH  064%=      5-min Rain = 0
KPD4 240936Z 18021KT 18/11 A298 RMK A01 T01770110  RH  065%=      5-min Rain = 0
KPD4 240937Z 18015KT 18/11 A298 RMK A01 T01770109  RH  065%=      5-min Rain = 0
KPD4 240938Z 18017KT 18/11 A298 RMK A01 T01770109  RH  065%=      5-min Rain = 0
KPD4 240939Z 18015KT 18/11 A298 RMK A01 T01760109  RH  065%=      5-min Rain = 0
KPD4 240940Z 18015KT 18/11 A298 RMK A01 T01760109  RH  065%=      5-min Rain = 0
KPD4 240941Z 18018KT 18/11 A298 RMK A01 T01760109  RH  065%=      5-min Rain = 0
KPD4 240942Z 18017KT 18/11 A298 RMK A01 T01760109  RH  065%=      5-min Rain = 0
KPD4 240943Z 18018KT 18/11 A298 RMK A01 T01760109  RH  065%=      5-min Rain = 0
KPD4 240944Z 19018KT 18/11 A298 RMK A01 T01760110  RH  065%=      5-min Rain = 0
KPD4 240945Z 19017KT 18/11 A298 RMK A01 T01760109  RH  065%=      5-min Rain = 0
KPD4 240946Z 18017KT 18/11 A298 RMK A01 T01760109  RH  065%=      5-min Rain = 0
KPD4 240947Z 18016G21KT 18/11 A298 RMK A01 T01760109  RH  065%=      5-min Rain = 0
KPD4 240948Z 18018KT 18/11 A298 RMK A01 T01760109  RH  065%=      5-min Rain = 0
KPD4 240949Z 18014KT 18/11 A298 RMK A01 T01760109  RH  065%=      5-min Rain = 0
KPD4 240950Z 19018KT 18/11 A298 RMK A01 T01750109  RH  065%=      5-min Rain = 0
KPD4 240951Z 19016KT 18/11 A298 RMK A01 T01750109  RH  065%=      5-min Rain = 0
KPD4 240952Z 19014G19KT 18/11 A298 RMK A01 T01750109  RH  065%=      5-min Rain = 0
KPD4 240953Z 19015G21KT 18/11 A2979 RMK A01 T01750109  RH  065%=      5-min Rain = 0
KPD4 240954Z 19016KT 17/11 A2979 RMK A01 T01740109  RH  065%=      5-min Rain = 0
KPD4 240955Z 19015KT 17/11 A2979 RMK A01 T01740109  RH  065%=      5-min Rain = 0
KPD4 240956Z 19014KT 17/11 A2979 RMK A01 T01740109  RH  065%=      5-min Rain = 0
KPD4 240957Z 19013KT 17/11 A2979 RMK A01 T01730108  RH  066%=      5-min Rain = 0
KPD4 240958Z 19014KT 17/11 A2979 RMK A01 T01730108  RH  066%=      5-min Rain = 0
KPD4 240959Z 19016KT 17/11 A2979 RMK A01 T01720108  RH  066%=      5-min Rain = 0
KPD4 241000Z 20016KT 17/11 A2979 RMK A01 T01720108  RH  066%=      5-min Rain = 0
KPD4 241001Z 19015KT 17/11 A2979 RMK A01 T01730108  RH  066%=      5-min Rain = 0
KPD4 241002Z 20015G20KT 17/11 A2979 RMK A01 T01730108  RH  066%=      5-min Rain = 0
KPD4 241003Z 19016KT 17/11 A2979 RMK A01 T01720108  RH  066%=      5-min Rain = 0
KPD4 241004Z 19018KT 17/11 A2979 RMK A01 T01720108  RH  066%=      5-min Rain = 0
KPD4 241005Z 19015KT 17/11 A2979 RMK A01 T01730108  RH  066%=      5-min Rain = 0
KPD4 241006Z 19018G23KT 17/11 A2979 RMK A01 T01730108  RH  065%=      5-min Rain = 0
KPD4 241007Z 19015KT 17/11 A2979 RMK A01 T01730108  RH  065%=      5-min Rain = 0
KPD4 241008Z 19018KT 17/11 A2979 RMK A01 T01730108  RH  065%=      5-min Rain = 0
KPD4 241009Z 19015KT 17/11 A2979 RMK A01 T01740108  RH  065%=      5-min Rain = 0
KPD4 241010Z 19017KT 17/11 A2979 RMK A01 T01740107  RH  065%=      5-min Rain = 0
KPD4 241011Z 19016KT 17/11 A2979 RMK A01 T01730107  RH  065%=      5-min Rain = 0
KPD4 241012Z 19015KT 17/11 A2979 RMK A01 T01730107  RH  065%=      5-min Rain = 0
KPD4 241013Z 19016KT 17/11 A2979 RMK A01 T01730107  RH  065%=      5-min Rain = 0
KPD4 241014Z 20014KT 17/11 A2979 RMK A01 T01730107  RH  065%=      5-min Rain = 0
KPD4 241015Z 19014KT 17/11 A2979 RMK A01 T01730107  RH  065%=      5-min Rain = 0
KPD4 241016Z 19017KT 17/11 A2979 RMK A01 T01730107  RH  065%=      5-min Rain = 0
KPD4 241017Z 20014KT 17/11 A2979 RMK A01 T01730107  RH  065%=      5-min Rain = 0
KPD4 241018Z 20016KT 17/11 A2978 RMK A01 T01730107  RH  065%=      5-min Rain = 0
KPD4 241019Z 20014KT 17/11 A2978 RMK A01 T01730107  RH  065%=      5-min Rain = 0
KPD4 241020Z 20014KT 17/11 A2978 RMK A01 T01730107  RH  065%=      5-min Rain = 0
KPD4 241021Z 20015KT 17/11 A2978 RMK A01 T01730107  RH  065%=      5-min Rain = 0
KPD4 241022Z 20017KT 17/11 A2978 RMK A01 T01730106  RH  065%=      5-min Rain = 0
KPD4 241023Z 19017KT 17/11 A2978 RMK A01 T01730107  RH  065%=      5-min Rain = 0
KPD4 241024Z 19015KT 17/11 A2978 RMK A01 T01730107  RH  065%=      5-min Rain = 0
KPD4 241025Z 20017G22KT 17/11 A2978 RMK A01 T01730107  RH  065%=      5-min Rain = 0
KPD4 241026Z 19014KT 17/11 A2978 RMK A01 T01730107  RH  065%=      5-min Rain = 0
KPD4 241027Z 19015KT 17/11 A2978 RMK A01 T01720106  RH  065%=      5-min Rain = 0
KPD4 241028Z 19015KT 17/11 A2978 RMK A01 T01720107  RH  065%=      5-min Rain = 0
KPD4 241029Z 20015KT 17/11 A2978 RMK A01 T01720107  RH  066%=      5-min Rain = 0
KPD4 241030Z 20015KT 17/11 A2978 RMK A01 T01720107  RH  066%=      5-min Rain = 0
KPD4 241031Z 20015KT 17/11 A2978 RMK A01 T01710107  RH  066%=      5-min Rain = 0
KPD4 241032Z 20013KT 17/11 A2978 RMK A01 T01710107  RH  066%=      5-min Rain = 0
KPD4 241033Z 20015KT 17/11 A2978 RMK A01 T01700107  RH  066%=      5-min Rain = 0
KPD4 241034Z 20014KT 17/11 A2978 RMK A01 T01700107  RH  066%=      5-min Rain = 0
KPD4 241035Z 20013KT 17/11 A2978 RMK A01 T01700107  RH  066%=      5-min Rain = 0
KPD4 241036Z 20014KT 17/11 A2978 RMK A01 T01700107  RH  066%=      5-min Rain = 0
KPD4 241037Z 20013KT 17/11 A2978 RMK A01 T01690107  RH  067%=      5-min Rain = 0
KPD4 241038Z 20014KT 17/11 A2978 RMK A01 T01690107  RH  067%=      5-min Rain = 0
KPD4 241039Z 20012KT 17/11 A2978 RMK A01 T01690107  RH  067%=      5-min Rain = 0
KPD4 241040Z 20011KT 17/11 A2978 RMK A01 T01680106  RH  067%=      5-min Rain = 0
KPD4 241041Z 20011G16KT 17/11 A2978 RMK A01 T01670106  RH  067%=      5-min Rain = 0
KPD4 241042Z 20013KT 17/11 A2978 RMK A01 T01660107  RH  068%=      5-min Rain = 0
KPD4 241043Z 21012KT 17/11 A2978 RMK A01 T01660106  RH  068%=      5-min Rain = 0
KPD4 241044Z 21014KT 17/11 A2978 RMK A01 T01660107  RH  068%=      5-min Rain = 0
KPD4 241045Z 21013KT 17/11 A2978 RMK A01 T01670107  RH  068%=      5-min Rain = 0
KPD4 241046Z 20013KT 17/11 A2978 RMK A01 T01670107  RH  068%=      5-min Rain = 0
KPD4 241047Z 20014KT 17/11 A2978 RMK A01 T01660107  RH  068%=      5-min Rain = 0
KPD4 241048Z 21013KT 17/11 A2978 RMK A01 T01670107  RH  068%=      5-min Rain = 0
KPD4 241049Z 20013KT 17/11 A2978 RMK A01 T01660107  RH  068%=      5-min Rain = 0
KPD4 241050Z 20012KT 17/11 A2978 RMK A01 T01660107  RH  068%=      5-min Rain = 0
KPD4 241051Z 20012KT 17/11 A2978 RMK A01 T01660107  RH  068%=      5-min Rain = 0
KPD4 241052Z 20012KT 17/11 A2978 RMK A01 T01650106  RH  068%=      5-min Rain = 0
KPD4 241053Z 20012KT 17/11 A2978 RMK A01 T01650107  RH  068%=      5-min Rain = 0
KPD4 241054Z 20012KT 17/11 A2979 RMK A01 T01650107  RH  068%=      5-min Rain = 0
KPD4 241055Z 20012KT 16/11 A2979 RMK A01 T01640106  RH  069%=      5-min Rain = 0
KPD4 241056Z 20012KT 16/11 A2979 RMK A01 T01640107  RH  069%=      5-min Rain = 0
KPD4 241057Z 20013KT 16/11 A2979 RMK A01 T01640107  RH  069%=      5-min Rain = 0
KPD4 241058Z 20012KT 16/11 A2979 RMK A01 T01640107  RH  069%=      5-min Rain = 0
KPD4 241059Z 20012KT 16/11 A2979 RMK A01 T01630107  RH  069%=      5-min Rain = 0
KPD4 241100Z 20013KT 16/11 A2979 RMK A01 T01630107  RH  069%=      5-min Rain = 0
KPD4 241101Z 20012KT 16/11 A2979 RMK A01 T01620106  RH  069%=      5-min Rain = 0
KPD4 241102Z 20012KT 16/11 A2979 RMK A01 T01620107  RH  069%=      5-min Rain = 0
KPD4 241103Z 20013KT 16/11 A2979 RMK A01 T01620107  RH  069%=      5-min Rain = 0
KPD4 241104Z 20011KT 16/11 A2979 RMK A01 T01620106  RH  069%=      5-min Rain = 0
KPD4 241105Z 20011KT 16/11 A2979 RMK A01 T01630107  RH  069%=      5-min Rain = 0
KPD4 241106Z 20012KT 16/11 A2979 RMK A01 T01620107  RH  070%=      5-min Rain = 0
KPD4 241107Z 20012KT 16/11 A2979 RMK A01 T01620107  RH  070%=      5-min Rain = 0
KPD4 241108Z 20012KT 16/11 A2979 RMK A01 T01620107  RH  070%=      5-min Rain = 0
KPD4 241109Z 20013KT 16/11 A298 RMK A01 T01620107  RH  070%=      5-min Rain = 0
KPD4 241110Z 20014KT 16/11 A298 RMK A01 T01620107  RH  070%=      5-min Rain = 0
KPD4 241111Z 20014KT 16/11 A298 RMK A01 T01630107  RH  070%=      5-min Rain = 0
KPD4 241112Z 20011KT 16/11 A298 RMK A01 T01630107  RH  069%=      5-min Rain = 0
KPD4 241113Z 20013KT 16/11 A298 RMK A01 T01630107  RH  069%=      5-min Rain = 0
KPD4 241114Z 20012KT 16/11 A298 RMK A01 T01630107  RH  070%=      5-min Rain = 0
KPD4 241115Z 20013KT 16/11 A298 RMK A01 T01630107  RH  070%=      5-min Rain = 0
KPD4 241116Z 20011KT 16/11 A298 RMK A01 T01630107  RH  070%=      5-min Rain = 0
KPD4 241117Z 19012KT 16/11 A298 RMK A01 T01630107  RH  070%=      5-min Rain = 0
KPD4 241118Z 19011KT 16/11 A298 RMK A01 T01630108  RH  070%=      5-min Rain = 0
KPD4 241119Z 20011KT 16/11 A298 RMK A01 T01620107  RH  070%=      5-min Rain = 0
KPD4 241120Z 19013KT 16/11 A298 RMK A01 T01610107  RH  070%=      5-min Rain = 0
KPD4 241121Z 19013KT 16/11 A298 RMK A01 T01620108  RH  070%=      5-min Rain = 0
KPD4 241122Z 19013KT 16/11 A298 RMK A01 T01630108  RH  070%=      5-min Rain = 0
KPD4 241123Z 19012KT 16/11 A298 RMK A01 T01630108  RH  070%=      5-min Rain = 0
KPD4 241124Z 19012KT 16/11 A298 RMK A01 T01630108  RH  070%=      5-min Rain = 0
KPD4 241125Z 19012KT 16/11 A298 RMK A01 T01630108  RH  070%=      5-min Rain = 0
KPD4 241126Z 19013KT 16/11 A298 RMK A01 T01630108  RH  070%=      5-min Rain = 0
KPD4 241127Z 18013KT 16/11 A298 RMK A01 T01630108  RH  070%=      5-min Rain = 0
KPD4 241128Z 19012KT 16/11 A298 RMK A01 T01640108  RH  069%=      5-min Rain = 0
KPD4 241129Z 18011KT 16/11 A298 RMK A01 T01640108  RH  070%=      5-min Rain = 0
KPD4 241130Z 18011KT 16/11 A298 RMK A01 T01630108  RH  070%=      5-min Rain = 0
KPD4 241131Z 18010KT 16/11 A298 RMK A01 T01630108  RH  070%=      5-min Rain = 0
KPD4 241132Z 18010KT 16/11 A298 RMK A01 T01620108  RH  070%=      5-min Rain = 0
KPD4 241133Z 18009KT 16/11 A298 RMK A01 T01620108  RH  070%=      5-min Rain = 0
KPD4 241134Z 18010KT 16/11 A298 RMK A01 T01610107  RH  070%=      5-min Rain = 0
KPD4 241135Z 18009KT 16/11 A298 RMK A01 T01610108  RH  071%=      5-min Rain = 0
KPD4 241136Z 18010KT 16/11 A2981 RMK A01 T01610108  RH  071%=      5-min Rain = 0
KPD4 241137Z 18010KT 16/11 A2981 RMK A01 T01610108  RH  071%=      5-min Rain = 0
KPD4 241138Z 18009KT 16/11 A2981 RMK A01 T01600108  RH  071%=      5-min Rain = 0
KPD4 241139Z 18009KT 16/11 A2981 RMK A01 T01600108  RH  071%=      5-min Rain = 0
KPD4 241140Z 18009KT 16/11 A298 RMK A01 T01590108  RH  071%=      5-min Rain = 0
KPD4 241141Z 18009KT 16/11 A298 RMK A01 T01590107  RH  071%=      5-min Rain = 0
KPD4 241142Z 18009KT 16/11 A2981 RMK A01 T01580107  RH  071%=      5-min Rain = 0
KPD4 241143Z 18010KT 16/11 A2981 RMK A01 T01580107  RH  072%=      5-min Rain = 0
KPD4 241144Z 17009KT 16/11 A2981 RMK A01 T01580107  RH  072%=      5-min Rain = 0
KPD4 241145Z 18009KT 16/11 A2981 RMK A01 T01580107  RH  072%=      5-min Rain = 0
KPD4 241146Z 17009KT 16/11 A2981 RMK A01 T01570107  RH  072%=      5-min Rain = 0
KPD4 241147Z 17008KT 16/11 A2981 RMK A01 T01570108  RH  072%=      5-min Rain = 0
KPD4 241148Z 18008KT 16/11 A2981 RMK A01 T01570107  RH  072%=      5-min Rain = 0
KPD4 241149Z 18007KT 16/11 A2981 RMK A01 T01570107  RH  072%=      5-min Rain = 0
KPD4 241150Z 19007KT 16/11 A2981 RMK A01 T01570107  RH  072%=      5-min Rain = 0
KPD4 241151Z 19006KT 16/11 A2981 RMK A01 T01560107  RH  072%=      5-min Rain = 0
KPD4 241152Z 18007KT 16/11 A2981 RMK A01 T01560107  RH  073%=      5-min Rain = 0
KPD4 241153Z 18007KT 16/11 A2981 RMK A01 T01550107  RH  073%=      5-min Rain = 0
KPD4 241154Z 18008KT 16/11 A2981 RMK A01 T01550107  RH  073%=      5-min Rain = 0
KPD4 241155Z 18008KT 16/11 A2981 RMK A01 T01550107  RH  073%=      5-min Rain = 0
KPD4 241156Z 17008KT 16/11 A2981 RMK A01 T01550107  RH  073%=      5-min Rain = 0
KPD4 241157Z 17008KT 16/11 A2981 RMK A01 T01550107  RH  073%=      5-min Rain = 0
KPD4 241158Z 17008KT 16/11 A2981 RMK A01 T01550107  RH  073%=      5-min Rain = 0
KPD4 241159Z 17007KT 16/11 A2981 RMK A01 T01550107  RH  073%=      5-min Rain = 0
KPD4 241200Z 17007KT 15/11 A2981 RMK A01 T01540107  RH  073%=      5-min Rain = 0
KPD4 241201Z 18006KT 15/11 A2981 RMK A01 T01540107  RH  073%=      5-min Rain = 0
KPD4 241202Z 18006KT 15/11 A2981 RMK A01 T01540107  RH  073%=      5-min Rain = 0
KPD4 241203Z 18006KT 15/11 A2981 RMK A01 T01540107  RH  073%=      5-min Rain = 0
KPD4 241204Z 18006KT 15/11 A2981 RMK A01 T01540107  RH  073%=      5-min Rain = 0
KPD4 241205Z 18006KT 15/11 A2981 RMK A01 T01530106  RH  074%=      5-min Rain = 0
KPD4 241206Z 18007KT 15/11 A2981 RMK A01 T01520106  RH  074%=      5-min Rain = 0
KPD4 241207Z 18007KT 15/11 A2981 RMK A01 T01520106  RH  074%=      5-min Rain = 0
KPD4 241208Z 18008KT 15/11 A2981 RMK A01 T01520107  RH  074%=      5-min Rain = 0
KPD4 241209Z 18007KT 15/11 A2981 RMK A01 T01530107  RH  074%=      5-min Rain = 0
KPD4 241210Z 18008KT 15/11 A2981 RMK A01 T01530107  RH  074%=      5-min Rain = 0
KPD4 241211Z 18008KT 15/11 A2981 RMK A01 T01530107  RH  074%=      5-min Rain = 0
KPD4 241212Z 18008KT 15/11 A2981 RMK A01 T01530107  RH  074%=      5-min Rain = 0
KPD4 241213Z 18008KT 15/11 A2981 RMK A01 T01530107  RH  074%=      5-min Rain = 0
KPD4 241214Z 18008KT 15/11 A2981 RMK A01 T01540108  RH  074%=      5-min Rain = 0
KPD4 241215Z 18008KT 15/11 A2981 RMK A01 T01540108  RH  074%=      5-min Rain = 0
KPD4 241216Z 18008KT 16/11 A2981 RMK A01 T01550108  RH  074%=      5-min Rain = 0
KPD4 241217Z 18008KT 16/11 A2981 RMK A01 T01550108  RH  074%=      5-min Rain = 0
KPD4 241218Z 18009KT 16/11 A2981 RMK A01 T01550108  RH  074%=      5-min Rain = 0
KPD4 241219Z 18008KT 16/11 A2981 RMK A01 T01550108  RH  074%=      5-min Rain = 0
KPD4 241220Z 18008KT 16/11 A2981 RMK A01 T01550108  RH  074%=      5-min Rain = 0
KPD4 241221Z 18008KT 16/11 A2981 RMK A01 T01550108  RH  074%=      5-min Rain = 0
KPD4 241222Z 18008KT 16/11 A2981 RMK A01 T01550108  RH  074%=      5-min Rain = 0
KPD4 241223Z 18008KT 16/11 A2981 RMK A01 T01550108  RH  074%=      5-min Rain = 0
KPD4 241224Z 18008KT 16/11 A2981 RMK A01 T01550108  RH  074%=      5-min Rain = 0
KPD4 241225Z 18008KT 16/11 A2981 RMK A01 T01550108  RH  074%=      5-min Rain = 0
KPD4 241226Z 18007KT 16/11 A2981 RMK A01 T01550108  RH  074%=      5-min Rain = 0
KPD4 241227Z 18007KT 16/11 A2981 RMK A01 T01550109  RH  074%=      5-min Rain = 0
KPD4 241228Z 18007KT 16/11 A2981 RMK A01 T01550108  RH  074%=      5-min Rain = 0
KPD4 241229Z 17006KT 16/11 A2981 RMK A01 T01550108  RH  074%=      5-min Rain = 0
KPD4 241230Z 17006KT 16/11 A2981 RMK A01 T01560109  RH  074%=      5-min Rain = 0
KPD4 241231Z 17006KT 16/11 A2981 RMK A01 T01560109  RH  073%=      5-min Rain = 0
KPD4 241232Z 17006KT 16/11 A2981 RMK A01 T01570109  RH  073%=      5-min Rain = 0
KPD4 241233Z 17005KT 16/11 A2981 RMK A01 T01580109  RH  073%=      5-min Rain = 0
KPD4 241234Z 16005KT 16/11 A2981 RMK A01 T01590110  RH  072%=      5-min Rain = 0
KPD4 241235Z 16004KT 16/11 A2981 RMK A01 T01600110  RH  072%=      5-min Rain = 0
KPD4 241236Z 15003KT 16/11 A2981 RMK A01 T01610111  RH  072%=      5-min Rain = 0
KPD4 241237Z 13003KT 16/11 A2981 RMK A01 T01620110  RH  071%=      5-min Rain = 0
KPD4 241238Z 13003KT 16/11 A2982 RMK A01 T01630111  RH  071%=      5-min Rain = 0
KPD4 241239Z 11003KT 16/11 A2982 RMK A01 T01630111  RH  071%=      5-min Rain = 0
KPD4 241240Z 10002KT 16/11 A2982 RMK A01 T01640111  RH  071%=      5-min Rain = 0
KPD4 241241Z 10003KT 16/11 A2982 RMK A01 T01640111  RH  071%=      5-min Rain = 0
KPD4 241242Z 09003KT 16/11 A2982 RMK A01 T01640111  RH  071%=      5-min Rain = 0
KPD4 241243Z 09003KT 16/11 A2982 RMK A01 T01640111  RH  071%=      5-min Rain = 0
KPD4 241244Z 07003KT 17/11 A2983 RMK A01 T01650112  RH  071%=      5-min Rain = 0
KPD4 241245Z 06004KT 17/11 A2983 RMK A01 T01660113  RH  071%=      5-min Rain = 0
KPD4 241246Z 06004KT 17/11 A2983 RMK A01 T01660113  RH  071%=      5-min Rain = 0
KPD4 241247Z 05004KT 17/11 A2983 RMK A01 T01670112  RH  070%=      5-min Rain = 0
KPD4 241248Z 04005KT 17/11 A2983 RMK A01 T01670111  RH  070%=      5-min Rain = 0
KPD4 241249Z 03006KT 17/11 A2983 RMK A01 T01670112  RH  070%=      5-min Rain = 0
KPD4 241250Z 05006KT 17/11 A2983 RMK A01 T01680112  RH  070%=      5-min Rain = 0
KPD4 241251Z 05005KT 17/11 A2983 RMK A01 T01690113  RH  070%=      5-min Rain = 0
KPD4 241252Z 04006KT 17/11 A2984 RMK A01 T01710112  RH  068%=      5-min Rain = 0
KPD4 241253Z 04007KT 17/11 A2984 RMK A01 T01710112  RH  068%=      5-min Rain = 0
KPD4 241254Z 04007KT 17/11 A2984 RMK A01 T01710112  RH  068%=      5-min Rain = 0
KPD4 241255Z 03007KT 17/11 A2984 RMK A01 T01710113  RH  069%=      5-min Rain = 0
KPD4 241256Z 02006KT 17/11 A2984 RMK A01 T01710113  RH  068%=      5-min Rain = 0
KPD4 241257Z 03006KT 17/11 A2984 RMK A01 T01710112  RH  068%=      5-min Rain = 0
KPD4 241258Z 03005KT 17/11 A2984 RMK A01 T01710112  RH  068%=      5-min Rain = 0
KPD4 241259Z 05003KT 17/11 A2984 RMK A01 T01710111  RH  068%=      5-min Rain = 0
KPD4 241300Z 05004KT 17/11 A2984 RMK A01 T01720112  RH  068%=      5-min Rain = 0
KPD4 241301Z 06003KT 17/11 A2984 RMK A01 T01740114  RH  068%=      5-min Rain = 0
KPD4 241302Z 06004KT 18/11 A2984 RMK A01 T01760113  RH  067%=      5-min Rain = 0
KPD4 241303Z 07005KT 18/11 A2984 RMK A01 T01760113  RH  066%=      5-min Rain = 0
KPD4 241304Z 08005KT 18/11 A2984 RMK A01 T01750114  RH  067%=      5-min Rain = 0
KPD4 241305Z 09005KT 18/11 A2984 RMK A01 T01750113  RH  067%=      5-min Rain = 0
KPD4 241306Z 09004KT 18/11 A2984 RMK A01 T01750113  RH  067%=      5-min Rain = 0
KPD4 241307Z 09006KT 18/11 A2984 RMK A01 T01750114  RH  067%=      5-min Rain = 0
KPD4 241308Z 10006KT 18/11 A2984 RMK A01 T01760113  RH  067%=      5-min Rain = 0
KPD4 241309Z 09007KT 18/11 A2984 RMK A01 T01760114  RH  067%=      5-min Rain = 0
KPD4 241310Z 09007KT 18/11 A2984 RMK A01 T01770114  RH  067%=      5-min Rain = 0
KPD4 241311Z 09007KT 18/11 A2984 RMK A01 T01770114  RH  066%=      5-min Rain = 0
KPD4 241312Z 11007KT 18/11 A2984 RMK A01 T01770114  RH  066%=      5-min Rain = 0
KPD4 241313Z 11007KT 18/11 A2984 RMK A01 T01770114  RH  066%=      5-min Rain = 0
KPD4 241314Z 11007KT 18/11 A2984 RMK A01 T01770113  RH  066%=      5-min Rain = 0
KPD4 241315Z 11007KT 18/11 A2984 RMK A01 T01770114  RH  067%=      5-min Rain = 0
KPD4 241316Z 10007KT 18/11 A2984 RMK A01 T01770114  RH  066%=      5-min Rain = 0
KPD4 241317Z 10007KT 18/11 A2984 RMK A01 T01770114  RH  067%=      5-min Rain = 0
KPD4 241318Z 11005KT 18/12 A2984 RMK A01 T01770115  RH  067%=      5-min Rain = 0
KPD4 241319Z 10005KT 18/12 A2984 RMK A01 T01790116  RH  067%=      5-min Rain = 0
KPD4 241320Z 10005KT 18/12 A2984 RMK A01 T01800115  RH  065%=      5-min Rain = 0
KPD4 241321Z 11005KT 18/11 A2984 RMK A01 T01810114  RH  065%=      5-min Rain = 0
KPD4 241322Z 10005KT 18/12 A2984 RMK A01 T01810115  RH  065%=      5-min Rain = 0
KPD4 241323Z 09007KT 18/12 A2984 RMK A01 T01820115  RH  065%=      5-min Rain = 0
KPD4 241324Z 09007KT 18/12 A2984 RMK A01 T01820115  RH  065%=      5-min Rain = 0
KPD4 241325Z 08007KT 18/12 A2984 RMK A01 T01820115  RH  065%=      5-min Rain = 0
KPD4 241326Z 09006KT 18/12 A2984 RMK A01 T01830117  RH  065%=      5-min Rain = 0
KPD4 241327Z 09007KT 18/12 A2984 RMK A01 T01840117  RH  065%=      5-min Rain = 0
KPD4 241328Z 09007KT 19/12 A2984 RMK A01 T01850116  RH  064%=      5-min Rain = 0
KPD4 241329Z 09006KT 19/12 A2984 RMK A01 T01850116  RH  064%=      5-min Rain = 0
KPD4 241330Z 08005KT 19/12 A2984 RMK A01 T01850117  RH  065%=      5-min Rain = 0
KPD4 241331Z 07006KT 19/12 A2984 RMK A01 T01850118  RH  065%=      5-min Rain = 0
KPD4 241332Z 07006KT 19/12 A2984 RMK A01 T01860116  RH  064%=      5-min Rain = 0
KPD4 241333Z 07006KT 19/12 A2984 RMK A01 T01850116  RH  064%=      5-min Rain = 0
KPD4 241334Z 08007KT 18/12 A2984 RMK A01 T01840117  RH  065%=      5-min Rain = 0
KPD4 241335Z 09007KT 19/12 A2984 RMK A01 T01850115  RH  064%=      5-min Rain = 0
KPD4 241336Z 11007KT 19/12 A2984 RMK A01 T01860116  RH  064%=      5-min Rain = 0
KPD4 241337Z 11006KT 19/12 A2984 RMK A01 T01870115  RH  063%=      5-min Rain = 0
KPD4 241338Z 12008KT 19/12 A2984 RMK A01 T01880117  RH  063%=      5-min Rain = 0
KPD4 241339Z 12007KT 19/12 A2984 RMK A01 T01890116  RH  062%=      5-min Rain = 0
KPD4 241340Z 12007KT 19/12 A2983 RMK A01 T01890119  RH  064%=      5-min Rain = 0
KPD4 241341Z 13007KT 19/12 A2983 RMK A01 T01920119  RH  062%=      5-min Rain = 0
KPD4 241342Z 12008KT 19/12 A2983 RMK A01 T01930117  RH  061%=      5-min Rain = 0
KPD4 241343Z 13007KT 19/12 A2983 RMK A01 T01930117  RH  061%=      5-min Rain = 0
KPD4 241344Z 13009KT 19/12 A2983 RMK A01 T01930117  RH  061%=      5-min Rain = 0
KPD4 241345Z 13007KT 19/12 A2983 RMK A01 T01930118  RH  062%=      5-min Rain = 0
KPD4 241346Z 14007KT 19/12 A2983 RMK A01 T01930119  RH  062%=      5-min Rain = 0
KPD4 241347Z 12007KT 20/12 A2983 RMK A01 T01950119  RH  061%=      5-min Rain = 0
KPD4 241348Z 12007KT 20/12 A2983 RMK A01 T01950117  RH  061%=      5-min Rain = 0
KPD4 241349Z 11008KT 19/12 A2983 RMK A01 T01940118  RH  061%=      5-min Rain = 0
KPD4 241350Z 11007KT 19/12 A2984 RMK A01 T01920117  RH  062%=      5-min Rain = 0
KPD4 241351Z 10007KT 19/12 A2984 RMK A01 T01910117  RH  062%=      5-min Rain = 0
KPD4 241352Z 09005KT 19/12 A2984 RMK A01 T01910116  RH  062%=      5-min Rain = 0
KPD4 241353Z 11005KT 19/12 A2984 RMK A01 T01910117  RH  062%=      5-min Rain = 0
KPD4 241354Z 12005KT 19/12 A2984 RMK A01 T01920117  RH  062%=      5-min Rain = 0
KPD4 241355Z 13006KT 19/12 A2984 RMK A01 T01920117  RH  062%=      5-min Rain = 0
KPD4 241356Z 12004KT 19/12 A2984 RMK A01 T01920118  RH  062%=      5-min Rain = 0
KPD4 241357Z 11007KT 19/12 A2984 RMK A01 T01940121  RH  062%=      5-min Rain = 0
KPD4 241358Z 11008KT 20/12 A2984 RMK A01 T01970120  RH  061%=      5-min Rain = 0
KPD4 241359Z 10007KT 20/12 A2984 RMK A01 T01970118  RH  060%=      5-min Rain = 0
KPD4 241400Z 10006KT 20/12 A2984 RMK A01 T01950118  RH  061%=      5-min Rain = 0
KPD4 241401Z 12006KT 19/12 A2984 RMK A01 T01940120  RH  062%=      5-min Rain = 0
KPD4 241402Z 12009KT 20/12 A2984 RMK A01 T01950120  RH  062%=      5-min Rain = 0
KPD4 241403Z 13006KT 20/12 A2984 RMK A01 T01960118  RH  060%=      5-min Rain = 0
KPD4 241404Z 13007KT 20/12 A2983 RMK A01 T01960119  RH  061%=      5-min Rain = 0
KPD4 241405Z 15006KT 20/12 A2983 RMK A01 T01960119  RH  061%=      5-min Rain = 0
KPD4 241406Z 15005KT 20/12 A2983 RMK A01 T01960120  RH  061%=      5-min Rain = 0
KPD4 241407Z 12007KT 20/12 A2983 RMK A01 T01980121  RH  061%=      5-min Rain = 0
KPD4 241408Z 13009KT 20/12 A2983 RMK A01 T01990119  RH  060%=      5-min Rain = 0
KPD4 241409Z 14009KT 20/12 A2983 RMK A01 T02000120  RH  060%=      5-min Rain = 0
KPD4 241410Z 14010KT 20/12 A2983 RMK A01 T02010120  RH  060%=      5-min Rain = 0
KPD4 241411Z 15009KT 20/12 A2983 RMK A01 T02020118  RH  058%=      5-min Rain = 0
KPD4 241412Z 15008KT 20/12 A2983 RMK A01 T02020118  RH  059%=      5-min Rain = 0
KPD4 241413Z 14009KT 20/12 A2983 RMK A01 T02030118  RH  058%=      5-min Rain = 0
KPD4 241414Z 16008KT 20/12 A2983 RMK A01 T02020119  RH  059%=      5-min Rain = 0
KPD4 241415Z 16008KT 20/12 A2983 RMK A01 T02030121  RH  059%=      5-min Rain = 0
KPD4 241416Z 16009KT 20/12 A2983 RMK A01 T02040122  RH  059%=      5-min Rain = 0
KPD4 241417Z 15010KT 21/12 A2983 RMK A01 T02050119  RH  058%=      5-min Rain = 0
KPD4 241418Z 16010KT 21/12 A2983 RMK A01 T02050119  RH  058%=      5-min Rain = 0
KPD4 241419Z 15009KT 21/12 A2983 RMK A01 T02050119  RH  058%=      5-min Rain = 0
KPD4 241420Z 16008KT 21/12 A2983 RMK A01 T02060118  RH  057%=      5-min Rain = 0
KPD4 241421Z 14010KT 21/12 A2983 RMK A01 T02070120  RH  057%=      5-min Rain = 0
KPD4 241422Z 17011KT 21/12 A2983 RMK A01 T02070117  RH  056%=      5-min Rain = 0
KPD4 241423Z 17008KT 21/12 A2983 RMK A01 T02080117  RH  056%=      5-min Rain = 0
KPD4 241424Z 15009KT 21/12 A2982 RMK A01 T02080118  RH  057%=      5-min Rain = 0
KPD4 241425Z 14010KT 21/12 A2982 RMK A01 T02090118  RH  056%=      5-min Rain = 0
KPD4 241426Z 15009KT 21/12 A2982 RMK A01 T02100117  RH  055%=      5-min Rain = 0
KPD4 241427Z 15010KT 21/12 A2982 RMK A01 T02120117  RH  055%=      5-min Rain = 0
KPD4 241428Z 18011KT 21/12 A2982 RMK A01 T02120118  RH  055%=      5-min Rain = 0
KPD4 241429Z 19010KT 21/12 A2982 RMK A01 T02130116  RH  054%=      5-min Rain = 0
KPD4 241430Z 17011KT 21/12 A2982 RMK A01 T02140116  RH  054%=      5-min Rain = 0
KPD4 241431Z 19012KT 22/12 A2982 RMK A01 T02150115  RH  053%=      5-min Rain = 0
KPD4 241432Z 17012KT 21/11 A2982 RMK A01 T02140113  RH  053%=      5-min Rain = 0
KPD4 241433Z 17011KT 21/11 A2982 RMK A01 T02140114  RH  053%=      5-min Rain = 0
KPD4 241434Z 18008KT 21/12 A2982 RMK A01 T02130115  RH  053%=      5-min Rain = 0
KPD4 241435Z 18010G15KT 21/12 A2982 RMK A01 T02130116  RH  054%=      5-min Rain = 0
KPD4 241436Z 19010KT 22/12 A2982 RMK A01 T02150115  RH  053%=      5-min Rain = 0
KPD4 241437Z 19010KT 22/12 A2982 RMK A01 T02170116  RH  053%=      5-min Rain = 0
KPD4 241438Z 18010KT 22/12 A2982 RMK A01 T02160115  RH  053%=      5-min Rain = 0
KPD4 241439Z 17011KT 22/12 A2982 RMK A01 T02160117  RH  053%=      5-min Rain = 0
KPD4 241440Z 17013KT 22/12 A2982 RMK A01 T02170116  RH  052%=      5-min Rain = 0
KPD4 241441Z 17011KT 22/12 A2982 RMK A01 T02170116  RH  052%=      5-min Rain = 0
KPD4 241442Z 17012KT 22/12 A2982 RMK A01 T02180116  RH  052%=      5-min Rain = 0
KPD4 241443Z 18011KT 22/12 A2982 RMK A01 T02200117  RH  052%=      5-min Rain = 0
KPD4 241444Z 18010KT 22/12 A2982 RMK A01 T02210116  RH  052%=      5-min Rain = 0
KPD4 241445Z 17009KT 22/12 A2982 RMK A01 T02210118  RH  052%=      5-min Rain = 0
KPD4 241446Z 17011KT 22/12 A2982 RMK A01 T02240117  RH  051%=      5-min Rain = 0
KPD4 241447Z 20011KT 22/12 A2982 RMK A01 T02240116  RH  050%=      5-min Rain = 0
KPD4 241448Z 18012KT 23/12 A2982 RMK A01 T02250115  RH  050%=      5-min Rain = 0
KPD4 241449Z 19010KT 23/12 A2982 RMK A01 T02270116  RH  050%=      5-min Rain = 0
KPD4 241450Z 17010KT 23/12 A2981 RMK A01 T02280116  RH  049%=      5-min Rain = 0
KPD4 241451Z 19011KT 23/12 A2981 RMK A01 T02310117  RH  049%=      5-min Rain = 0
KPD4 241452Z 20012KT 23/11 A2981 RMK A01 T02290114  RH  048%=      5-min Rain = 0
KPD4 241453Z 20009KT 23/11 A2981 RMK A01 T02250113  RH  049%=      5-min Rain = 0
KPD4 241454Z 19013KT 22/11 A2981 RMK A01 T02240114  RH  050%=      5-min Rain = 0
KPD4 241455Z 18013KT 23/11 A2981 RMK A01 T02250113  RH  049%=      5-min Rain = 0
KPD4 241456Z 17010G15KT 23/11 A2981 RMK A01 T02250113  RH  049%=      5-min Rain = 0
KPD4 241457Z 19013KT 23/12 A2981 RMK A01 T02250116  RH  050%=      5-min Rain = 0
KPD4 241458Z 20011KT 23/12 A2981 RMK A01 T02280115  RH  049%=      5-min Rain = 0
KPD4 241459Z 19010KT 23/12 A2981 RMK A01 T02280116  RH  049%=      5-min Rain = 0
KPD4 241500Z 18011KT 23/12 A2981 RMK A01 T02300116  RH  049%=      5-min Rain = 0
KPD4 241501Z 19009KT 23/12 A2981 RMK A01 T02300117  RH  049%=      5-min Rain = 0
KPD4 241502Z 20009KT 23/12 A2981 RMK A01 T02310116  RH  048%=      5-min Rain = 0
KPD4 241503Z 19011KT 23/12 A2981 RMK A01 T02300116  RH  049%=      5-min Rain = 0
KPD4 241504Z 19010KT 23/12 A2981 RMK A01 T02310117  RH  049%=      5-min Rain = 0
KPD4 241505Z 18010KT 23/12 A2981 RMK A01 T02330119  RH  049%=      5-min Rain = 0
KPD4 241506Z 19012KT 24/12 A2981 RMK A01 T02360120  RH  048%=      5-min Rain = 0
KPD4 241507Z 19014KT 24/12 A2981 RMK A01 T02370119  RH  047%=      5-min Rain = 0
KPD4 241508Z 19011KT 24/12 A2981 RMK A01 T02370119  RH  048%=      5-min Rain = 0
KPD4 241509Z 20011KT 24/12 A2981 RMK A01 T02360119  RH  048%=      5-min Rain = 0
KPD4 241510Z 22011G19KT 24/12 A298 RMK A01 T02370122  RH  049%=      5-min Rain = 0
KPD4 241511Z 22015KT 24/12 A298 RMK A01 T02410121  RH  047%=      5-min Rain = 0
KPD4 241512Z 21013KT 24/12 A298 RMK A01 T02400120  RH  047%=      5-min Rain = 0
KPD4 241513Z 21011KT 24/12 A298 RMK A01 T02400120  RH  047%=      5-min Rain = 0
KPD4 241514Z 18010KT 24/12 A298 RMK A01 T02400121  RH  047%=      5-min Rain = 0
KPD4 241515Z 18009KT 24/12 A298 RMK A01 T02410122  RH  047%=      5-min Rain = 0
KPD4 241516Z 21010KT 24/12 A298 RMK A01 T02420123  RH  047%=      5-min Rain = 0
KPD4 241517Z 23012KT 24/12 A298 RMK A01 T02430121  RH  046%=      5-min Rain = 0
KPD4 241518Z 19013KT 24/12 A298 RMK A01 T02430121  RH  046%=      5-min Rain = 0
KPD4 241519Z 20013KT 24/12 A298 RMK A01 T02420122  RH  047%=      5-min Rain = 0
KPD4 241520Z 22014KT 24/12 A298 RMK A01 T02430120  RH  046%=      5-min Rain = 0
KPD4 241521Z 20013KT 24/12 A298 RMK A01 T02430122  RH  047%=      5-min Rain = 0
KPD4 241522Z 19013KT 25/12 A298 RMK A01 T02460121  RH  046%=      5-min Rain = 0
KPD4 241523Z 19013KT 25/12 A298 RMK A01 T02450120  RH  045%=      5-min Rain = 0
KPD4 241524Z 20015KT 24/12 A298 RMK A01 T02430120  RH  046%=      5-min Rain = 0
KPD4 241525Z 21012KT 24/12 A298 RMK A01 T02400119  RH  046%=      5-min Rain = 0
KPD4 241526Z 19010KT 24/12 A298 RMK A01 T02380120  RH  048%=      5-min Rain = 0
KPD4 241527Z 18008KT 24/12 A298 RMK A01 T02420124  RH  048%=      5-min Rain = 0
KPD4 241528Z 18014KT 25/12 A298 RMK A01 T02450123  RH  046%=      5-min Rain = 0
KPD4 241529Z 18014KT 25/12 A298 RMK A01 T02470121  RH  045%=      5-min Rain = 0
KPD4 241530Z 18013KT 25/12 A2979 RMK A01 T02460122  RH  046%=      5-min Rain = 0
KPD4 241531Z 18013KT 25/12 A2979 RMK A01 T02450122  RH  046%=      5-min Rain = 0
KPD4 241532Z 18013KT 24/12 A2979 RMK A01 T02440122  RH  047%=      5-min Rain = 0
KPD4 241533Z 20012G20KT 24/12 A2979 RMK A01 T02430124  RH  047%=      5-min Rain = 0
KPD4 241534Z 19017KT 24/12 A2979 RMK A01 T02440124  RH  047%=      5-min Rain = 0
KPD4 241535Z 20014KT 25/13 A2979 RMK A01 T02460125  RH  047%=      5-min Rain = 0
KPD4 241536Z 19017KT 25/13 A2979 RMK A01 T02470125  RH  046%=      5-min Rain = 0
KPD4 241537Z 19017KT 25/12 A2979 RMK A01 T02490124  RH  046%=      5-min Rain = 0
KPD4 241538Z 21015KT 25/13 A2979 RMK A01 T02490125  RH  046%=      5-min Rain = 0
KPD4 241539Z 21015KT 25/12 A2979 RMK A01 T02520123  RH  045%=      5-min Rain = 0
KPD4 241540Z 20011KT 25/12 A2979 RMK A01 T02490120  RH  045%=      5-min Rain = 0
KPD4 241541Z 20014KT 25/12 A2979 RMK A01 T02470122  RH  046%=      5-min Rain = 0
KPD4 241542Z 20015KT 25/12 A2979 RMK A01 T02490121  RH  045%=      5-min Rain = 0
KPD4 241543Z 20010KT 25/12 A2979 RMK A01 T02480119  RH  044%=      5-min Rain = 0
KPD4 241544Z 21008G13KT 25/12 A2979 RMK A01 T02460122  RH  046%=      5-min Rain = 0
KPD4 241545Z 21011KT 25/13 A2979 RMK A01 T02500127  RH  046%=      5-min Rain = 0
KPD4 241546Z 20011KT 25/13 A2979 RMK A01 T02540126  RH  045%=      5-min Rain = 0
KPD4 241547Z 20012KT 26/12 A2979 RMK A01 T02550124  RH  044%=      5-min Rain = 0
KPD4 241548Z 21015KT 25/12 A2979 RMK A01 T02530123  RH  044%=      5-min Rain = 0
KPD4 241549Z 22013KT 25/12 A2979 RMK A01 T02500119  RH  044%=      5-min Rain = 0
KPD4 241550Z 22015KT 25/12 A2979 RMK A01 T02490123  RH  045%=      5-min Rain = 0
KPD4 241551Z 21014KT 25/12 A2979 RMK A01 T02500123  RH  045%=      5-min Rain = 0
KPD4 241552Z 21012KT 25/12 A2979 RMK A01 T02490123  RH  045%=      5-min Rain = 0
KPD4 241553Z 20009KT 25/12 A2979 RMK A01 T02470122  RH  046%=      5-min Rain = 0
KPD4 241554Z 18012KT 25/13 A2979 RMK A01 T02460125  RH  047%=      5-min Rain = 0
KPD4 241555Z 19012KT 25/12 A2979 RMK A01 T02490123  RH  046%=      5-min Rain = 0
KPD4 241556Z 20012KT 25/12 A2979 RMK A01 T02490123  RH  045%=      5-min Rain = 0
KPD4 241557Z 21014KT 25/13 A2979 RMK A01 T02500125  RH  046%=      5-min Rain = 0
KPD4 241558Z 20013G19KT 25/13 A2979 RMK A01 T02530127  RH  045%=      5-min Rain = 0
KPD4 241559Z 23014KT 26/12 A2979 RMK A01 T02570124  RH  044%=      5-min Rain = 0
KPD4 241600Z 23011KT 26/12 A2979 RMK A01 T02550119  RH  043%=      5-min Rain = 0
KPD4 241601Z 22010KT 25/12 A2979 RMK A01 T02500118  RH  044%=      5-min Rain = 0
KPD4 241602Z 23013G19KT 25/12 A2979 RMK A01 T02510123  RH  045%=      5-min Rain = 0
KPD4 241603Z 21011G17KT 26/12 A2979 RMK A01 T02570124  RH  044%=      5-min Rain = 0
KPD4 241604Z 20016KT 26/13 A2979 RMK A01 T02610125  RH  043%=      5-min Rain = 0
KPD4 241605Z 21015KT 26/12 A2979 RMK A01 T02580120  RH  042%=      5-min Rain = 0
KPD4 241606Z 21012KT 25/12 A2979 RMK A01 T02540119  RH  043%=      5-min Rain = 0
KPD4 241607Z 22012KT 25/12 A2979 RMK A01 T02520120  RH  044%=      5-min Rain = 0
KPD4 241608Z 23010KT 25/12 A2979 RMK A01 T02540118  RH  043%=      5-min Rain = 0
KPD4 241609Z 22014KT 26/12 A2979 RMK A01 T02550120  RH  043%=      5-min Rain = 0
KPD4 241610Z 22012KT 26/12 A2979 RMK A01 T02550119  RH  043%=      5-min Rain = 0
KPD4 241611Z 22010KT 25/12 A2979 RMK A01 T02530120  RH  044%=      5-min Rain = 0
KPD4 241612Z 19007KT 25/12 A2979 RMK A01 T02540121  RH  043%=      5-min Rain = 0
KPD4 241613Z 20006KT 25/12 A2979 RMK A01 T02530120  RH  043%=      5-min Rain = 0
KPD4 241614Z 21010G18KT 25/12 A2979 RMK A01 T02530123  RH  044%=      5-min Rain = 0
KPD4 241615Z 20016KT 26/12 A2979 RMK A01 T02570121  RH  043%=      5-min Rain = 0
KPD4 241616Z 20012G17KT 26/12 A2979 RMK A01 T02580121  RH  042%=      5-min Rain = 0
KPD4 241617Z 21012KT 26/12 A2979 RMK A01 T02590120  RH  042%=      5-min Rain = 0
KPD4 241618Z 23012KT 26/12 A2979 RMK A01 T02580120  RH  042%=      5-min Rain = 0
KPD4 241619Z 23012KT 26/12 A2979 RMK A01 T02580119  RH  042%=      5-min Rain = 0
KPD4 241620Z 21007KT 26/12 A2979 RMK A01 T02550120  RH  043%=      5-min Rain = 0
KPD4 241621Z 21007KT 26/12 A2979 RMK A01 T02550121  RH  043%=      5-min Rain = 0
KPD4 241622Z 22009KT 26/12 A2979 RMK A01 T02550119  RH  043%=      5-min Rain = 0
KPD4 241623Z 23012KT 25/12 A2979 RMK A01 T02530121  RH  044%=      5-min Rain = 0
KPD4 241624Z 21013KT 26/12 A2979 RMK A01 T02550121  RH  043%=      5-min Rain = 0
KPD4 241625Z 23011KT 26/12 A2979 RMK A01 T02550119  RH  043%=      5-min Rain = 0
KPD4 241626Z 23012KT 26/12 A2979 RMK A01 T02550118  RH  042%=      5-min Rain = 0
KPD4 241627Z 25015KT 25/12 A2979 RMK A01 T02540116  RH  042%=      5-min Rain = 0
KPD4 241628Z 20014KT 26/12 A2979 RMK A01 T02570121  RH  043%=      5-min Rain = 0
KPD4 241629Z 18012KT 26/12 A2979 RMK A01 T02630118  RH  040%=      5-min Rain = 0
KPD4 241630Z 19013KT 26/12 A2979 RMK A01 T02590117  RH  041%=      5-min Rain = 0
KPD4 241631Z 21012G17KT 26/12 A2979 RMK A01 T02590118  RH  041%=      5-min Rain = 0
KPD4 241632Z 22014KT 26/12 A2979 RMK A01 T02600118  RH  041%=      5-min Rain = 0
KPD4 241633Z 22012KT 26/12 A2979 RMK A01 T02580117  RH  041%=      5-min Rain = 0
KPD4 241634Z 20012KT 26/12 A2979 RMK A01 T02570117  RH  042%=      5-min Rain = 0
KPD4 241635Z 20008KT 25/12 A2979 RMK A01 T02530115  RH  042%=      5-min Rain = 0
KPD4 241636Z 21011KT 26/12 A2979 RMK A01 T02550122  RH  043%=      5-min Rain = 0
KPD4 241637Z 22016KT 26/12 A2979 RMK A01 T02620119  RH  041%=      5-min Rain = 0
KPD4 241638Z 22015KT 26/12 A2979 RMK A01 T02620116  RH  040%=      5-min Rain = 0
KPD4 241639Z 22013KT 26/12 A2979 RMK A01 T02610118  RH  041%=      5-min Rain = 0
KPD4 241640Z 21011KT 26/12 A2979 RMK A01 T02620117  RH  040%=      5-min Rain = 0
KPD4 241641Z 21010KT 26/12 A298 RMK A01 T02600115  RH  040%=      5-min Rain = 0
KPD4 241642Z 20008KT 26/12 A298 RMK A01 T02600115  RH  040%=      5-min Rain = 0
KPD4 241643Z 21010KT 26/12 A2979 RMK A01 T02600116  RH  040%=      5-min Rain = 0
KPD4 241644Z 20015KT 27/12 A2979 RMK A01 T02660119  RH  040%=      5-min Rain = 0
KPD4 241645Z 20013KT 27/12 A298 RMK A01 T02660117  RH  039%=      5-min Rain = 0
KPD4 241646Z 19009KT 26/12 A298 RMK A01 T02620117  RH  040%=      5-min Rain = 0
KPD4 241647Z 19008KT 26/12 A298 RMK A01 T02620119  RH  041%=      5-min Rain = 0
KPD4 241648Z 17013KT 26/12 A2979 RMK A01 T02630118  RH  040%=      5-min Rain = 0
KPD4 241649Z 19012KT 26/12 A298 RMK A01 T02630117  RH  040%=      5-min Rain = 0
KPD4 241650Z 18008KT 26/11 A298 RMK A01 T02600114  RH  040%=      5-min Rain = 0
KPD4 241651Z 18005KT 26/12 A298 RMK A01 T02580117  RH  041%=      5-min Rain = 0
KPD4 241652Z 20006KT 26/12 A298 RMK A01 T02570120  RH  043%=      5-min Rain = 0
KPD4 241653Z 21015KT 26/12 A298 RMK A01 T02610122  RH  042%=      5-min Rain = 0
KPD4 241654Z 22010KT 26/12 A298 RMK A01 T02590119  RH  041%=      5-min Rain = 0
KPD4 241655Z 20007KT 26/12 A298 RMK A01 T02580121  RH  043%=      5-min Rain = 0
KPD4 241656Z 23007KT 26/12 A298 RMK A01 T02580124  RH  043%=      5-min Rain = 0
KPD4 241657Z 22008KT 26/13 A298 RMK A01 T02640127  RH  043%=      5-min Rain = 0
KPD4 241658Z 21007KT 26/12 A298 RMK A01 T02630122  RH  041%=      5-min Rain = 0
KPD4 241659Z 23011KT 26/13 A298 RMK A01 T02620125  RH  043%=      5-min Rain = 0
KPD4 241700Z 22012KT 26/12 A298 RMK A01 T02640123  RH  042%=      5-min Rain = 0
KPD4 241701Z 23014KT 26/12 A298 RMK A01 T02620122  RH  042%=      5-min Rain = 0
KPD4 241702Z 25010KT 26/12 A298 RMK A01 T02620123  RH  042%=      5-min Rain = 0
KPD4 241703Z 25009KT 26/12 A298 RMK A01 T02590120  RH  042%=      5-min Rain = 0
KPD4 241704Z 26007KT 26/12 A298 RMK A01 T02550120  RH  043%=      5-min Rain = 0
KPD4 241705Z 25006KT 25/12 A298 RMK A01 T02530121  RH  044%=      5-min Rain = 0
KPD4 241706Z 23006KT 26/13 A298 RMK A01 T02560126  RH  044%=      5-min Rain = 0
KPD4 241707Z 26006KT 26/12 A298 RMK A01 T02600124  RH  043%=      5-min Rain = 0
KPD4 241708Z 25004KT 26/12 A298 RMK A01 T02610122  RH  042%=      5-min Rain = 0
KPD4 241709Z 23007KT 26/12 A298 RMK A01 T02610123  RH  042%=      5-min Rain = 0
KPD4 241710Z 24009KT 26/12 A298 RMK A01 T02610123  RH  042%=      5-min Rain = 0
KPD4 241711Z 26008KT 26/12 A298 RMK A01 T02640121  RH  041%=      5-min Rain = 0
KPD4 241712Z 25011G16KT 26/12 A298 RMK A01 T02620122  RH  042%=      5-min Rain = 0
KPD4 241713Z 24010KT 26/12 A298 RMK A01 T02630123  RH  042%=      5-min Rain = 0
KPD4 241714Z 23011KT 27/13 A298 RMK A01 T02680129  RH  042%=      5-min Rain = 0
KPD4 241715Z 24012KT 27/12 A298 RMK A01 T02740124  RH  039%=      5-min Rain = 0
KPD4 241716Z 25011KT 27/12 A298 RMK A01 T02670120  RH  040%=      5-min Rain = 0
KPD4 241717Z 26008KT 26/12 A298 RMK A01 T02610120  RH  041%=      5-min Rain = 0
KPD4 241718Z 23009G14KT 26/12 A298 RMK A01 T02590122  RH  042%=      5-min Rain = 0
KPD4 241719Z 25012KT 26/12 A298 RMK A01 T02610122  RH  042%=      5-min Rain = 0
KPD4 241720Z 26011KT 26/12 A298 RMK A01 T02630124  RH  042%=      5-min Rain = 0
KPD4 241721Z 26007KT 27/12 A298 RMK A01 T02650123  RH  041%=      5-min Rain = 0
KPD4 241722Z 26005KT 27/12 A298 RMK A01 T02650123  RH  041%=      5-min Rain = 0
KPD4 241723Z 25008KT 26/12 A298 RMK A01 T02630121  RH  041%=      5-min Rain = 0
KPD4 241724Z 26009KT 26/12 A2979 RMK A01 T02590121  RH  042%=      5-min Rain = 0
KPD4 241725Z 25012KT 26/12 A2979 RMK A01 T02610123  RH  042%=      5-min Rain = 0
KPD4 241726Z 24013KT 26/12 A2979 RMK A01 T02640123  RH  042%=      5-min Rain = 0
KPD4 241727Z 24011KT 27/12 A298 RMK A01 T02660123  RH  041%=      5-min Rain = 0
KPD4 241728Z 22007KT 27/12 A298 RMK A01 T02670122  RH  040%=      5-min Rain = 0
KPD4 241729Z 20005KT 26/12 A2979 RMK A01 T02630120  RH  041%=      5-min Rain = 0
KPD4 241730Z 18004KT 26/12 A2979 RMK A01 T02620120  RH  041%=      5-min Rain = 0
KPD4 241731Z 18002KT 26/12 A2979 RMK A01 T02600120  RH  042%=      5-min Rain = 0
KPD4 241732Z 21001KT 26/12 A2979 RMK A01 T02600120  RH  042%=      5-min Rain = 0
KPD4 241733Z 24007KT 26/12 A2979 RMK A01 T02600123  RH  042%=      5-min Rain = 0
KPD4 241734Z 25013KT 27/13 A2979 RMK A01 T02650125  RH  042%=      5-min Rain = 0
KPD4 241735Z 23012KT 27/12 A2979 RMK A01 T02700120  RH  039%=      5-min Rain = 0
KPD4 241736Z 22012KT 27/12 A2979 RMK A01 T02720122  RH  039%=      5-min Rain = 0
KPD4 241737Z 21012KT 28/12 A2979 RMK A01 T02750122  RH  039%=      5-min Rain = 0
KPD4 241738Z 20012KT 28/12 A2979 RMK A01 T02750121  RH  038%=      5-min Rain = 0
KPD4 241739Z 22010KT 28/12 A2979 RMK A01 T02750119  RH  038%=      5-min Rain = 0
KPD4 241740Z 21007KT 27/12 A2979 RMK A01 T02720122  RH  039%=      5-min Rain = 0
KPD4 241741Z 18008KT 27/12 A2979 RMK A01 T02730121  RH  039%=      5-min Rain = 0
KPD4 241742Z 17006KT 27/12 A2979 RMK A01 T02700120  RH  039%=      5-min Rain = 0
KPD4 241743Z 17008KT 27/13 A2979 RMK A01 T02710125  RH  040%=      5-min Rain = 0
KPD4 241744Z 16007KT 27/13 A2979 RMK A01 T02740125  RH  040%=      5-min Rain = 0
KPD4 241745Z 27006KT 27/12 A2979 RMK A01 T02740122  RH  039%=      5-min Rain = 0
KPD4 241746Z 23009KT 27/13 A2979 RMK A01 T02730125  RH  040%=      5-min Rain = 0
KPD4 241747Z 23012KT 28/12 A2978 RMK A01 T02750124  RH  039%=      5-min Rain = 0
KPD4 241748Z 23011KT 28/13 A2978 RMK A01 T02780126  RH  039%=      5-min Rain = 0
KPD4 241749Z 22011KT 28/13 A2978 RMK A01 T02800125  RH  038%=      5-min Rain = 0
KPD4 241750Z 23013KT 28/12 A2978 RMK A01 T02790124  RH  038%=      5-min Rain = 0
KPD4 241751Z 23012KT 28/12 A2979 RMK A01 T02780123  RH  038%=      5-min Rain = 0
KPD4 241752Z 23008G13KT 28/12 A2978 RMK A01 T02760121  RH  038%=      5-min Rain = 0
KPD4 241753Z 22011KT 28/12 A2978 RMK A01 T02750123  RH  039%=      5-min Rain = 0
KPD4 241754Z 22006KT 27/12 A2979 RMK A01 T02740119  RH  038%=      5-min Rain = 0
KPD4 241755Z 23005KT 27/12 A2979 RMK A01 T02720121  RH  039%=      5-min Rain = 0
KPD4 241756Z 24006KT 27/12 A2978 RMK A01 T02720120  RH  039%=      5-min Rain = 0
KPD4 241757Z 25009KT 27/12 A2978 RMK A01 T02720121  RH  039%=      5-min Rain = 0
KPD4 241758Z 25011KT 27/12 A2978 RMK A01 T02720120  RH  039%=      5-min Rain = 0
KPD4 241759Z 24009KT 27/12 A2978 RMK A01 T02700121  RH  039%=      5-min Rain = 0
KPD4 241800Z 23009KT 27/12 A2978 RMK A01 T02730123  RH  040%=      5-min Rain = 0
KPD4 241801Z 24010KT 28/12 A2978 RMK A01 T02750124  RH  039%=      5-min Rain = 0
KPD4 241802Z 24010KT 28/12 A2978 RMK A01 T02760123  RH  039%=      5-min Rain = 0
KPD4 241803Z 23007KT 28/12 A2978 RMK A01 T02750120  RH  038%=      5-min Rain = 0
KPD4 241804Z 21009KT 27/12 A2978 RMK A01 T02720123  RH  040%=      5-min Rain = 0
KPD4 241805Z 21005KT 27/12 A2978 RMK A01 T02740122  RH  039%=      5-min Rain = 0
KPD4 241806Z 17004KT 27/12 A2978 RMK A01 T02740123  RH  039%=      5-min Rain = 0
KPD4 241807Z 16002KT 27/12 A2978 RMK A01 T02740119  RH  038%=      5-min Rain = 0
KPD4 241808Z 24004KT 28/12 A2978 RMK A01 T02750122  RH  039%=      5-min Rain = 0
KPD4 241809Z 25009KT 28/12 A2978 RMK A01 T02790123  RH  038%=      5-min Rain = 0
KPD4 241810Z 24011KT 28/12 A2978 RMK A01 T02840122  RH  037%=      5-min Rain = 0
KPD4 241811Z 24014KT 29/12 A2978 RMK A01 T02880120  RH  035%=      5-min Rain = 0
KPD4 241812Z 24013KT 29/12 A2978 RMK A01 T02880115  RH  034%=      5-min Rain = 0
KPD4 241813Z 24014KT 29/12 A2978 RMK A01 T02860116  RH  035%=      5-min Rain = 0
KPD4 241814Z 25010KT 28/11 A2978 RMK A01 T02800112  RH  035%=      5-min Rain = 0
KPD4 241815Z 24010KT 28/11 A2978 RMK A01 T02770114  RH  036%=      5-min Rain = 0
KPD4 241816Z 21005KT 28/12 A2978 RMK A01 T02760115  RH  037%=      5-min Rain = 0
KPD4 241817Z 19003KT 28/12 A2978 RMK A01 T02750116  RH  037%=      5-min Rain = 0
KPD4 241818Z 25004KT 27/12 A2978 RMK A01 T02740119  RH  038%=      5-min Rain = 0
KPD4 241819Z 27003KT 28/12 A2978 RMK A01 T02750117  RH  037%=      5-min Rain = 0
KPD4 241820Z 22003KT 27/12 A2978 RMK A01 T02740118  RH  038%=      5-min Rain = 0
KPD4 241821Z 22007KT 28/12 A2978 RMK A01 T02760122  RH  038%=      5-min Rain = 0
KPD4 241822Z 24010G15KT 28/12 A2978 RMK A01 T02830124  RH  037%=      5-min Rain = 0
KPD4 241823Z 21012G17KT 29/12 A2978 RMK A01 T02860122  RH  036%=      5-min Rain = 0
KPD4 241824Z 24010KT 28/12 A2978 RMK A01 T02840120  RH  036%=      5-min Rain = 0
KPD4 241825Z 25013KT 28/12 A2978 RMK A01 T02830117  RH  036%=      5-min Rain = 0
KPD4 241826Z 26013KT 28/12 A2978 RMK A01 T02810118  RH  036%=      5-min Rain = 0
KPD4 241827Z 25011KT 28/12 A2978 RMK A01 T02820116  RH  036%=      5-min Rain = 0
KPD4 241828Z 25010KT 28/12 A2978 RMK A01 T02800117  RH  036%=      5-min Rain = 0
KPD4 241829Z 25010G15KT 28/12 A2978 RMK A01 T02800116  RH  036%=      5-min Rain = 0
KPD4 241830Z 26014KT 28/12 A2978 RMK A01 T02780116  RH  037%=      5-min Rain = 0
KPD4 241831Z 25011KT 28/11 A2978 RMK A01 T02790114  RH  036%=      5-min Rain = 0
KPD4 241832Z 24009KT 28/12 A2978 RMK A01 T02780116  RH  036%=      5-min Rain = 0
KPD4 241833Z 20005KT 28/12 A2978 RMK A01 T02760115  RH  037%=      5-min Rain = 0
KPD4 241834Z 23004KT 28/12 A2978 RMK A01 T02760117  RH  037%=      5-min Rain = 0
KPD4 241835Z 25009KT 28/12 A2978 RMK A01 T02780117  RH  037%=      5-min Rain = 0
KPD4 241836Z 23002KT 28/12 A2978 RMK A01 T02770115  RH  037%=      5-min Rain = 0
KPD4 241837Z 21005KT 28/12 A2978 RMK A01 T02760118  RH  037%=      5-min Rain = 0
KPD4 241838Z 19007G12KT 28/12 A2977 RMK A01 T02800122  RH  038%=      5-min Rain = 0
KPD4 241839Z 21012KT 29/12 A2977 RMK A01 T02890124  RH  036%=      5-min Rain = 0
KPD4 241840Z 21010KT 29/12 A2977 RMK A01 T02910115  RH  034%=      5-min Rain = 0
KPD4 241841Z 21007KT 29/11 A2977 RMK A01 T02870114  RH  034%=      5-min Rain = 0
KPD4 241842Z 24009KT 29/12 A2977 RMK A01 T02850115  RH  035%=      5-min Rain = 0
KPD4 241843Z 26011G17KT 29/12 A2977 RMK A01 T02850115  RH  035%=      5-min Rain = 0
KPD4 241844Z 25014G20KT 29/12 A2977 RMK A01 T02880115  RH  034%=      5-min Rain = 0
KPD4 241845Z 23013G20KT 29/11 A2978 RMK A01 T02900113  RH  033%=      5-min Rain = 0
KPD4 241846Z 23009KT 29/11 A2977 RMK A01 T02860114  RH  034%=      5-min Rain = 0
KPD4 241847Z 23014KT 29/12 A2977 RMK A01 T02890117  RH  034%=      5-min Rain = 0
KPD4 241848Z 22009G14KT 29/11 A2977 RMK A01 T02920112  RH  033%=      5-min Rain = 0
KPD4 241849Z 20006KT 29/11 A2977 RMK A01 T02850107  RH  033%=      5-min Rain = 0
KPD4 241850Z 18005KT 28/11 A2977 RMK A01 T02810110  RH  034%=      5-min Rain = 0
KPD4 241851Z 14003KT 28/11 A2977 RMK A01 T02800109  RH  034%=      5-min Rain = 0
KPD4 241852Z 20005KT 28/11 A2977 RMK A01 T02810112  RH  035%=      5-min Rain = 0
KPD4 241853Z 21007KT 28/11 A2977 RMK A01 T02820112  RH  035%=      5-min Rain = 0
KPD4 241854Z 24014KT 29/11 A2977 RMK A01 T02860113  RH  034%=      5-min Rain = 0
KPD4 241855Z 22013G18KT 29/11 A2977 RMK A01 T02920112  RH  033%=      5-min Rain = 0
KPD4 241856Z 23010KT 29/11 A2977 RMK A01 T02930110  RH  032%=      5-min Rain = 0
KPD4 241857Z 23012KT 29/11 A2977 RMK A01 T02940109  RH  032%=      5-min Rain = 0
KPD4 241858Z 22011KT 29/11 A2977 RMK A01 T02930106  RH  031%=      5-min Rain = 0
KPD4 241859Z 21008KT 29/10 A2977 RMK A01 T02910102  RH  031%=      5-min Rain = 0
KPD4 241900Z 24006KT 29/10 A2977 RMK A01 T02900103  RH  031%=      5-min Rain = 0
KPD4 241901Z 25010KT 29/11 A2977 RMK A01 T02900106  RH  032%=      5-min Rain = 0
KPD4 241902Z 24014KT 29/11 A2977 RMK A01 T02920111  RH  033%=      5-min Rain = 0
KPD4 241903Z 23010KT 29/11 A2977 RMK A01 T02930110  RH  032%=      5-min Rain = 0
KPD4 241904Z 23006G14KT 29/11 A2977 RMK A01 T02920105  RH  031%=      5-min Rain = 0
KPD4 241905Z 24012KT 29/11 A2977 RMK A01 T02880105  RH  032%=      5-min Rain = 0
KPD4 241906Z 24012KT 29/11 A2977 RMK A01 T02850106  RH  033%=      5-min Rain = 0
KPD4 241907Z 23010KT 29/11 A2977 RMK A01 T02870108  RH  033%=      5-min Rain = 0
KPD4 241908Z 22013KT 29/11 A2977 RMK A01 T02890110  RH  033%=      5-min Rain = 0
KPD4 241909Z 22009KT 29/11 A2977 RMK A01 T02900109  RH  033%=      5-min Rain = 0
KPD4 241910Z 23005KT 29/11 A2977 RMK A01 T02880109  RH  033%=      5-min Rain = 0
KPD4 241911Z 24006KT 29/11 A2977 RMK A01 T02870110  RH  033%=      5-min Rain = 0
KPD4 241912Z 25010KT 29/11 A2977 RMK A01 T02900109  RH  033%=      5-min Rain = 0
KPD4 241913Z 22014KT 29/10 A2977 RMK A01 T02930104  RH  031%=      5-min Rain = 0
KPD4 241914Z 22011KT 30/10 A2977 RMK A01 T02970099  RH  029%=      5-min Rain = 0
KPD4 241915Z 23009KT 30/10 A2977 RMK A01 T02980100  RH  029%=      5-min Rain = 0
KPD4 241916Z 20011KT 30/10 A2977 RMK A01 T02970102  RH  030%=      5-min Rain = 0
KPD4 241917Z 21009KT 30/10 A2977 RMK A01 T02980099  RH  029%=      5-min Rain = 0
KPD4 241918Z 22007G12KT 30/10 A2977 RMK A01 T02960102  RH  030%=      5-min Rain = 0
KPD4 241919Z 22013KT 30/10 A2977 RMK A01 T02960100  RH  030%=      5-min Rain = 0
KPD4 241920Z 21010KT 29/09 A2977 RMK A01 T02930094  RH  029%=      5-min Rain = 0
KPD4 241921Z 22009KT 29/10 A2977 RMK A01 T02910103  RH  031%=      5-min Rain = 0
KPD4 241922Z 25009KT 29/10 A2977 RMK A01 T02940104  RH  031%=      5-min Rain = 0
KPD4 241923Z 26009KT 29/11 A2977 RMK A01 T02930105  RH  031%=      5-min Rain = 0
KPD4 241924Z 25009KT 29/10 A2977 RMK A01 T02930104  RH  031%=      5-min Rain = 0
KPD4 241925Z 24008KT 29/10 A2977 RMK A01 T02920104  RH  031%=      5-min Rain = 0
KPD4 241926Z 20006KT 29/11 A2977 RMK A01 T02920107  RH  032%=      5-min Rain = 0
KPD4 241927Z 19010KT 30/11 A2977 RMK A01 T02960107  RH  031%=      5-min Rain = 0
KPD4 241928Z 19007KT 30/10 A2977 RMK A01 T02960102  RH  030%=      5-min Rain = 0
KPD4 241929Z 20007KT 29/11 A2977 RMK A01 T02920105  RH  031%=      5-min Rain = 0
KPD4 241930Z 23014KT 30/11 A2977 RMK A01 T02960107  RH  031%=      5-min Rain = 0
KPD4 241931Z 22014KT 30/10 A2977 RMK A01 T03000104  RH  030%=      5-min Rain = 0
KPD4 241932Z 21012KT 30/10 A2977 RMK A01 T03000099  RH  029%=      5-min Rain = 0
KPD4 241933Z 20010KT 30/10 A2977 RMK A01 T02960100  RH  030%=      5-min Rain = 0
KPD4 241934Z 19010KT 30/10 A2977 RMK A01 T02960104  RH  031%=      5-min Rain = 0
KPD4 241935Z 21009KT 30/10 A2977 RMK A01 T02970103  RH  030%=      5-min Rain = 0
KPD4 241936Z 25013KT 30/11 A2977 RMK A01 T02980106  RH  030%=      5-min Rain = 0
KPD4 241937Z 25014KT 30/10 A2977 RMK A01 T02980102  RH  030%=      5-min Rain = 0
KPD4 241938Z 23012KT 30/10 A2977 RMK A01 T02950102  RH  030%=      5-min Rain = 0
KPD4 241939Z 23011KT 29/10 A2977 RMK A01 T02930104  RH  031%=      5-min Rain = 0
KPD4 241940Z 23009KT 30/10 A2977 RMK A01 T02950103  RH  030%=      5-min Rain = 0
KPD4 241941Z 24008KT 29/10 A2977 RMK A01 T02920101  RH  030%=      5-min Rain = 0
KPD4 241942Z 23006KT 29/10 A2977 RMK A01 T02910100  RH  031%=      5-min Rain = 0
KPD4 241943Z 23009KT 29/10 A2977 RMK A01 T02940103  RH  031%=      5-min Rain = 0
KPD4 241944Z 25005KT 29/10 A2977 RMK A01 T02940098  RH  030%=      5-min Rain = 0
KPD4 241945Z 22005KT 29/10 A2977 RMK A01 T02930100  RH  030%=      5-min Rain = 0
KPD4 241946Z 22005KT 29/10 A2976 RMK A01 T02940101  RH  030%=      5-min Rain = 0
KPD4 241947Z 25009KT 30/10 A2976 RMK A01 T02960101  RH  030%=      5-min Rain = 0
KPD4 241948Z 25009KT 30/10 A2976 RMK A01 T02960097  RH  029%=      5-min Rain = 0
KPD4 241949Z 25008G14KT 30/10 A2976 RMK A01 T02950099  RH  030%=      5-min Rain = 0
KPD4 241950Z 25014KT 30/10 A2976 RMK A01 T02980101  RH  029%=      5-min Rain = 0
KPD4 241951Z 26012G17KT 30/10 A2976 RMK A01 T02990095  RH  028%=      5-min Rain = 0
KPD4 241952Z 26008KT 29/10 A2976 RMK A01 T02930095  RH  029%=      5-min Rain = 0
KPD4 241953Z 26009KT 30/10 A2976 RMK A01 T02950099  RH  030%=      5-min Rain = 0
KPD4 241954Z 24009KT 30/10 A2976 RMK A01 T03010097  RH  028%=      5-min Rain = 0
KPD4 241955Z 23006KT 30/10 A2976 RMK A01 T03030095  RH  028%=      5-min Rain = 0
KPD4 241956Z 24007G13KT 30/10 A2976 RMK A01 T03020098  RH  028%=      5-min Rain = 0
KPD4 241957Z 24012KT 30/10 A2976 RMK A01 T03040097  RH  028%=      5-min Rain = 0
KPD4 241958Z 24009KT 30/10 A2976 RMK A01 T03030096  RH  028%=      5-min Rain = 0
KPD4 241959Z 22011KT 30/10 A2976 RMK A01 T03020099  RH  028%=      5-min Rain = 0
KPD4 242000Z 21013KT 30/10 A2976 RMK A01 T03030099  RH  028%=      5-min Rain = 0
KPD4 242001Z 20011KT 30/10 A2976 RMK A01 T03040098  RH  028%=      5-min Rain = 0
KPD4 242002Z 20010KT 30/10 A2976 RMK A01 T03020097  RH  028%=      5-min Rain = 0
KPD4 242003Z 20009KT 30/10 A2976 RMK A01 T03000099  RH  029%=      5-min Rain = 0
KPD4 242004Z 20005KT 30/10 A2976 RMK A01 T03020101  RH  029%=      5-min Rain = 0
KPD4 242005Z 25004KT 30/10 A2976 RMK A01 T03020100  RH  029%=      5-min Rain = 0
KPD4 242006Z 29001KT 30/09 A2976 RMK A01 T02970094  RH  028%=      5-min Rain = 0
KPD4 242007Z 20003KT 29/10 A2976 RMK A01 T02930097  RH  029%=      5-min Rain = 0
KPD4 242008Z 21003KT 30/10 A2976 RMK A01 T02950103  RH  030%=      5-min Rain = 0
KPD4 242009Z 24009KT 30/10 A2976 RMK A01 T03000101  RH  029%=      5-min Rain = 0
KPD4 242010Z 25011KT 30/10 A2976 RMK A01 T03020098  RH  028%=      5-min Rain = 0
KPD4 242011Z 26010G15KT 30/10 A2976 RMK A01 T03030097  RH  028%=      5-min Rain = 0
KPD4 242012Z 22009KT 31/10 A2976 RMK A01 T03050104  RH  029%=      5-min Rain = 0
KPD4 242013Z 22009KT 31/10 A2976 RMK A01 T03070100  RH  028%=      5-min Rain = 0
KPD4 242014Z 20011KT 30/10 A2976 RMK A01 T03040102  RH  029%=      5-min Rain = 0
KPD4 242015Z 21012KT 31/10 A2976 RMK A01 T03050103  RH  029%=      5-min Rain = 0
KPD4 242016Z 21010KT 31/10 A2976 RMK A01 T03050097  RH  028%=      5-min Rain = 0
KPD4 242017Z 23007KT 30/10 A2976 RMK A01 T03030095  RH  027%=      5-min Rain = 0
KPD4 242018Z 20007KT 30/10 A2976 RMK A01 T03030096  RH  028%=      5-min Rain = 0
KPD4 242019Z 18007KT 30/10 A2976 RMK A01 T03020097  RH  028%=      5-min Rain = 0
KPD4 242020Z 16007KT 30/10 A2976 RMK A01 T03030097  RH  028%=      5-min Rain = 0
KPD4 242021Z 15006KT 30/10 A2976 RMK A01 T03030095  RH  028%=      5-min Rain = 0
KPD4 242022Z 16004KT 30/10 A2976 RMK A01 T03000095  RH  028%=      5-min Rain = 0
KPD4 242023Z 22002KT 30/09 A2976 RMK A01 T02990092  RH  028%=      5-min Rain = 0
KPD4 242024Z 24004KT 30/10 A2976 RMK A01 T02970097  RH  029%=      5-min Rain = 0
KPD4 242025Z 24009KT 30/10 A2976 RMK A01 T02990096  RH  028%=      5-min Rain = 0
KPD4 242026Z 23008KT 30/09 A2976 RMK A01 T03040086  RH  026%=      5-min Rain = 0
KPD4 242027Z 24006KT 30/09 A2976 RMK A01 T03030086  RH  026%=      5-min Rain = 0
KPD4 242028Z 24007G16KT 30/09 A2976 RMK A01 T03020089  RH  026%=      5-min Rain = 0
KPD4 242029Z 22015KT 30/09 A2975 RMK A01 T03030094  RH  027%=      5-min Rain = 0
KPD4 242030Z 22013KT 31/10 A2975 RMK A01 T03050097  RH  027%=      5-min Rain = 0
KPD4 242031Z 22009KT 31/09 A2976 RMK A01 T03080093  RH  026%=      5-min Rain = 0
KPD4 242032Z 22012KT 31/09 A2976 RMK A01 T03090092  RH  026%=      5-min Rain = 0
KPD4 242033Z 23011KT 31/10 A2976 RMK A01 T03110096  RH  026%=      5-min Rain = 0
KPD4 242034Z 23009KT 31/09 A2976 RMK A01 T03130092  RH  026%=      5-min Rain = 0
KPD4 242035Z 25006KT 31/09 A2975 RMK A01 T03090090  RH  026%=      5-min Rain = 0
KPD4 242036Z 20009KT 31/09 A2975 RMK A01 T03060094  RH  027%=      5-min Rain = 0
KPD4 242037Z 20009KT 31/09 A2975 RMK A01 T03060089  RH  026%=      5-min Rain = 0
KPD4 242038Z 21008KT 30/10 A2975 RMK A01 T03040095  RH  027%=      5-min Rain = 0
KPD4 242039Z 21006KT 31/09 A2975 RMK A01 T03070094  RH  027%=      5-min Rain = 0
KPD4 242040Z 24007KT 31/09 A2975 RMK A01 T03070094  RH  027%=      5-min Rain = 0
KPD4 242041Z 25009KT 31/09 A2975 RMK A01 T03090093  RH  026%=      5-min Rain = 0
KPD4 242042Z 25004KT 31/09 A2975 RMK A01 T03080088  RH  025%=      5-min Rain = 0
KPD4 242043Z 25009KT 31/09 A2975 RMK A01 T03050094  RH  027%=      5-min Rain = 0
KPD4 242044Z 26010KT 31/09 A2975 RMK A01 T03050092  RH  027%=      5-min Rain = 0
KPD4 242045Z 26007KT 30/09 A2975 RMK A01 T03040091  RH  027%=      5-min Rain = 0
KPD4 242046Z 27007KT 30/09 A2975 RMK A01 T03020089  RH  026%=      5-min Rain = 0
KPD4 242047Z 27006KT 30/09 A2975 RMK A01 T03000091  RH  027%=      5-min Rain = 0
KPD4 242048Z 26006KT 30/09 A2975 RMK A01 T03000090  RH  027%=      5-min Rain = 0
KPD4 242049Z 26006KT 30/09 A2975 RMK A01 T03000093  RH  028%=      5-min Rain = 0
KPD4 242050Z 25003KT 30/09 A2975 RMK A01 T03000093  RH  028%=      5-min Rain = 0
KPD4 242051Z 25004KT 30/09 A2975 RMK A01 T03020094  RH  027%=      5-min Rain = 0
KPD4 242052Z 25007KT 31/09 A2975 RMK A01 T03060094  RH  027%=      5-min Rain = 0
KPD4 242053Z 26004KT 31/09 A2975 RMK A01 T03070092  RH  026%=      5-min Rain = 0
KPD4 242054Z 20003KT 31/09 A2975 RMK A01 T03070092  RH  026%=      5-min Rain = 0
KPD4 242055Z 20003KT 31/09 A2975 RMK A01 T03110087  RH  025%=      5-min Rain = 0
KPD4 242056Z 19005KT 31/09 A2975 RMK A01 T03120087  RH  025%=      5-min Rain = 0
KPD4 242057Z 20003KT 31/09 A2975 RMK A01 T03100085  RH  025%=      5-min Rain = 0
KPD4 242058Z 24007G15KT 31/09 A2975 RMK A01 T03090086  RH  025%=      5-min Rain = 0
KPD4 242059Z 25009KT 31/08 A2975 RMK A01 T03080083  RH  025%=      5-min Rain = 0
KPD4 242100Z 25008KT 31/08 A2975 RMK A01 T03080078  RH  024%=      5-min Rain = 0
KPD4 242101Z 24006KT 31/08 A2975 RMK A01 T03090077  RH  023%=      5-min Rain = 0
KPD4 242102Z 20009KT 31/08 A2975 RMK A01 T03100084  RH  025%=      5-min Rain = 0
KPD4 242103Z 23011KT 32/09 A2974 RMK A01 T03150086  RH  024%=      5-min Rain = 0
KPD4 242104Z 25008KT 32/09 A2975 RMK A01 T03150086  RH  024%=      5-min Rain = 0
KPD4 242105Z 22005KT 31/09 A2975 RMK A01 T03130089  RH  025%=      5-min Rain = 0
KPD4 242106Z 21005KT 31/08 A2974 RMK A01 T03130084  RH  024%=      5-min Rain = 0
KPD4 242107Z 22004KT 31/08 A2974 RMK A01 T03130080  RH  024%=      5-min Rain = 0
KPD4 242108Z 19004KT 31/08 A2974 RMK A01 T03090080  RH  024%=      5-min Rain = 0
KPD4 242109Z 20005KT 31/08 A2974 RMK A01 T03070079  RH  024%=      5-min Rain = 0
KPD4 242110Z 23005KT 31/08 A2974 RMK A01 T03050080  RH  025%=      5-min Rain = 0
KPD4 242111Z 25009KT 31/08 A2974 RMK A01 T03050079  RH  024%=      5-min Rain = 0
KPD4 242112Z 27008KT 31/08 A2974 RMK A01 T03070075  RH  023%=      5-min Rain = 0
KPD4 242113Z 26009KT 31/08 A2974 RMK A01 T03090080  RH  024%=      5-min Rain = 0
KPD4 242114Z 25007KT 31/08 A2974 RMK A01 T03120077  RH  023%=      5-min Rain = 0
KPD4 242115Z 26008G13KT 31/07 A2974 RMK A01 T03110074  RH  023%=      5-min Rain = 0
KPD4 242116Z 24011KT 31/08 A2974 RMK A01 T03100077  RH  023%=      5-min Rain = 0
KPD4 242117Z 24010KT 31/08 A2974 RMK A01 T03140078  RH  023%=      5-min Rain = 0
KPD4 242118Z 27006KT 31/08 A2974 RMK A01 T03140079  RH  023%=      5-min Rain = 0
KPD4 242119Z 24010G15KT 32/09 A2974 RMK A01 T03150086  RH  024%=      5-min Rain = 0
KPD4 242120Z 23012KT 32/08 A2974 RMK A01 T03210079  RH  022%=      5-min Rain = 0
KPD4 242121Z 22010KT 32/08 A2974 RMK A01 T03220080  RH  022%=      5-min Rain = 0
KPD4 242122Z 21007KT 32/07 A2974 RMK A01 T03190072  RH  021%=      5-min Rain = 0
KPD4 242123Z 21009KT 31/07 A2973 RMK A01 T03140070  RH  022%=      5-min Rain = 0
KPD4 242124Z 21012KT 31/08 A2973 RMK A01 T03140075  RH  023%=      5-min Rain = 0
KPD4 242125Z 21010KT 31/08 A2973 RMK A01 T03120075  RH  023%=      5-min Rain = 0
KPD4 242126Z 20010KT 31/07 A2974 RMK A01 T03140073  RH  022%=      5-min Rain = 0
KPD4 242127Z 21004KT 31/07 A2974 RMK A01 T03140069  RH  022%=      5-min Rain = 0
KPD4 242128Z 20007KT 31/07 A2973 RMK A01 T03120070  RH  022%=      5-min Rain = 0
KPD4 242129Z 21004KT 31/07 A2973 RMK A01 T03090066  RH  022%=      5-min Rain = 0
KPD4 242130Z 22005KT 31/07 A2973 RMK A01 T03080071  RH  023%=      5-min Rain = 0
KPD4 242131Z 24005KT 31/07 A2973 RMK A01 T03090070  RH  022%=      5-min Rain = 0
KPD4 242132Z 27005KT 31/08 A2973 RMK A01 T03110079  RH  024%=      5-min Rain = 0
KPD4 242133Z 31003KT 31/08 A2973 RMK A01 T03120077  RH  023%=      5-min Rain = 0
KPD4 242134Z 26003KT 31/08 A2973 RMK A01 T03090081  RH  024%=      5-min Rain = 0
KPD4 242135Z 27009KT 31/08 A2973 RMK A01 T03120082  RH  024%=      5-min Rain = 0
KPD4 242136Z 26009KT 31/08 A2973 RMK A01 T03130075  RH  023%=      5-min Rain = 0
KPD4 242137Z 26010KT 31/07 A2973 RMK A01 T03100073  RH  023%=      5-min Rain = 0
KPD4 242138Z 27011KT 31/07 A2973 RMK A01 T03070072  RH  023%=      5-min Rain = 0
KPD4 242139Z 29009KT 31/07 A2973 RMK A01 T03050071  RH  023%=      5-min Rain = 0
KPD4 242140Z 25008KT 30/07 A2973 RMK A01 T03010073  RH  024%=      5-min Rain = 0
KPD4 242141Z 25004KT 30/07 A2973 RMK A01 T03000074  RH  024%=      5-min Rain = 0
KPD4 242142Z 25002KT 30/08 A2973 RMK A01 T02990075  RH  024%=      5-min Rain = 0
KPD4 242143Z 20004KT 30/08 A2973 RMK A01 T03010078  RH  025%=      5-min Rain = 0
KPD4 242144Z 19004KT 30/08 A2973 RMK A01 T03030078  RH  025%=      5-min Rain = 0
KPD4 242145Z 20001KT 30/07 A2972 RMK A01 T03030073  RH  024%=      5-min Rain = 0
KPD4 242146Z 25001KT 30/07 A2972 RMK A01 T03000068  RH  023%=      5-min Rain = 0
KPD4 242147Z 30002KT 30/07 A2972 RMK A01 T02980070  RH  024%=      5-min Rain = 0
KPD4 242148Z 28005KT 30/07 A2972 RMK A01 T02990071  RH  024%=      5-min Rain = 0
KPD4 242149Z 28007KT 30/07 A2972 RMK A01 T03000066  RH  023%=      5-min Rain = 0
KPD4 242150Z 27011KT 30/07 A2972 RMK A01 T03010072  RH  024%=      5-min Rain = 0
KPD4 242151Z 28011KT 30/07 A2972 RMK A01 T03030072  RH  024%=      5-min Rain = 0
KPD4 242152Z 28009KT 31/07 A2972 RMK A01 T03050072  RH  023%=      5-min Rain = 0
KPD4 242153Z 29006KT 31/07 A2972 RMK A01 T03070070  RH  023%=      5-min Rain = 0
KPD4 242154Z 28004KT 31/07 A2972 RMK A01 T03080072  RH  023%=      5-min Rain = 0
KPD4 242155Z 28007KT 31/08 A2972 RMK A01 T03130075  RH  023%=      5-min Rain = 0
KPD4 242156Z 29008KT 32/07 A2972 RMK A01 T03170071  RH  022%=      5-min Rain = 0
KPD4 242157Z 26008KT 32/07 A2972 RMK A01 T03180071  RH  021%=      5-min Rain = 0
KPD4 242158Z 24005KT 31/07 A2972 RMK A01 T03140069  RH  022%=      5-min Rain = 0
KPD4 242159Z 25005KT 31/07 A2972 RMK A01 T03120069  RH  022%=      5-min Rain = 0
KPD4 242200Z 26004KT 31/07 A2972 RMK A01 T03130071  RH  022%=      5-min Rain = 0
KPD4 242201Z 31005KT 32/07 A2972 RMK A01 T03170066  RH  021%=      5-min Rain = 0
KPD4 242202Z 27007KT 32/07 A2972 RMK A01 T03180068  RH  021%=      5-min Rain = 0
KPD4 242203Z 27008KT 32/07 A2972 RMK A01 T03180066  RH  021%=      5-min Rain = 0
KPD4 242204Z 29002KT 31/06 A2972 RMK A01 T03130059  RH  020%=      5-min Rain = 0
KPD4 242205Z 33003KT 31/06 A2971 RMK A01 T03100059  RH  021%=      5-min Rain = 0
KPD4 242206Z 31004KT 31/06 A2971 RMK A01 T03090062  RH  021%=      5-min Rain = 0
KPD4 242207Z 26008G14KT 31/06 A2971 RMK A01 T03110061  RH  021%=      5-min Rain = 0
KPD4 242208Z 26013G18KT 31/05 A2971 RMK A01 T03140050  RH  019%=      5-min Rain = 0
KPD4 242209Z 25016KT 32/05 A2971 RMK A01 T03180046  RH  018%=      5-min Rain = 0
KPD4 242210Z 25015KT 32/05 A2971 RMK A01 T03200050  RH  018%=      5-min Rain = 0
KPD4 242211Z 24014KT 32/06 A2971 RMK A01 T03230055  RH  019%=      5-min Rain = 0
KPD4 242212Z 23012KT 32/05 A2971 RMK A01 T03240052  RH  018%=      5-min Rain = 0
KPD4 242213Z 24009KT 32/05 A2971 RMK A01 T03230054  RH  019%=      5-min Rain = 0
KPD4 242214Z 23011KT 32/05 A2971 RMK A01 T03220049  RH  018%=      5-min Rain = 0
KPD4 242215Z 25010KT 32/04 A2971 RMK A01 T03190041  RH  017%=      5-min Rain = 0
KPD4 242216Z 23008KT 31/04 A2971 RMK A01 T03140040  RH  018%=      5-min Rain = 0
KPD4 242217Z 24009KT 32/05 A2971 RMK A01 T03150052  RH  019%=      5-min Rain = 0
KPD4 242218Z 24012G17KT 32/05 A2971 RMK A01 T03200053  RH  019%=      5-min Rain = 0
KPD4 242219Z 22009KT 32/06 A2971 RMK A01 T03210061  RH  020%=      5-min Rain = 0
KPD4 242220Z 22009KT 33/06 A2971 RMK A01 T03260062  RH  019%=      5-min Rain = 0
KPD4 242221Z 23014KT 33/06 A2971 RMK A01 T03300058  RH  018%=      5-min Rain = 0
KPD4 242222Z 24010KT 33/05 A2971 RMK A01 T03280053  RH  018%=      5-min Rain = 0
KPD4 242223Z 23008KT 32/05 A2971 RMK A01 T03240053  RH  018%=      5-min Rain = 0
KPD4 242224Z 24006KT 32/05 A2971 RMK A01 T03210052  RH  018%=      5-min Rain = 0
KPD4 242225Z 25007KT 32/06 A2971 RMK A01 T03190056  RH  019%=      5-min Rain = 0
KPD4 242226Z 26007KT 32/06 A2971 RMK A01 T03200056  RH  019%=      5-min Rain = 0
KPD4 242227Z 25010KT 32/06 A2971 RMK A01 T03220060  RH  019%=      5-min Rain = 0
KPD4 242228Z 24007KT 32/06 A2971 RMK A01 T03210057  RH  019%=      5-min Rain = 0
KPD4 242229Z 23005KT 32/06 A2971 RMK A01 T03170060  RH  020%=      5-min Rain = 0
KPD4 242230Z 24007KT 32/06 A2971 RMK A01 T03180057  RH  020%=      5-min Rain = 0
KPD4 242231Z 24010KT 32/05 A2971 RMK A01 T03160049  RH  019%=      5-min Rain = 0
KPD4 242232Z 25009KT 32/05 A2971 RMK A01 T03160049  RH  019%=      5-min Rain = 0
KPD4 242233Z 26010KT 32/05 A297 RMK A01 T03180046  RH  018%=      5-min Rain = 0
KPD4 242234Z 27013KT 32/04 A297 RMK A01 T03160043  RH  018%=      5-min Rain = 0
KPD4 242235Z 26011KT 31/04 A297 RMK A01 T03140044  RH  018%=      5-min Rain = 0
KPD4 242236Z 26012KT 31/04 A297 RMK A01 T03120040  RH  018%=      5-min Rain = 0
KPD4 242237Z 23011KT 31/04 A2971 RMK A01 T03100038  RH  018%=      5-min Rain = 0
KPD4 242238Z 21013KT 31/03 A297 RMK A01 T03110034  RH  017%=      5-min Rain = 0
KPD4 242239Z 20010KT 31/03 A297 RMK A01 T03130034  RH  017%=      5-min Rain = 0
KPD4 242240Z 19010KT 32/04 A297 RMK A01 T03150035  RH  017%=      5-min Rain = 0
KPD4 242241Z 21012KT 32/05 A297 RMK A01 T03180045  RH  018%=      5-min Rain = 0
KPD4 242242Z 22013KT 33/04 A297 RMK A01 T03260044  RH  017%=      5-min Rain = 0
KPD4 242243Z 22010KT 33/05 A297 RMK A01 T03300046  RH  017%=      5-min Rain = 0
KPD4 242244Z 22010KT 33/05 A297 RMK A01 T03310046  RH  017%=      5-min Rain = 0
KPD4 242245Z 23015KT 33/04 A297 RMK A01 T03330044  RH  016%=      5-min Rain = 0
KPD4 242246Z 24015KT 33/04 A297 RMK A01 T03310037  RH  016%=      5-min Rain = 0
KPD4 242247Z 25014KT 33/04 A297 RMK A01 T03280036  RH  016%=      5-min Rain = 0
KPD4 242248Z 24012KT 33/04 A297 RMK A01 T03260036  RH  016%=      5-min Rain = 0
KPD4 242249Z 24011KT 32/04 A297 RMK A01 T03210035  RH  016%=      5-min Rain = 0
KPD4 242250Z 23012KT 32/04 A297 RMK A01 T03190035  RH  017%=      5-min Rain = 0
KPD4 242251Z 23015KT 32/04 A297 RMK A01 T03200038  RH  017%=      5-min Rain = 0
KPD4 242252Z 24014KT 32/04 A297 RMK A01 T03220039  RH  017%=      5-min Rain = 0
KPD4 242253Z 24015KT 32/04 A297 RMK A01 T03220044  RH  017%=      5-min Rain = 0
KPD4 242254Z 25014KT 32/04 A297 RMK A01 T03190039  RH  017%=      5-min Rain = 0
KPD4 242255Z 25012KT 31/03 A297 RMK A01 T03140033  RH  017%=      5-min Rain = 0
KPD4 242256Z 26010KT 31/03 A297 RMK A01 T03100030  RH  017%=      5-min Rain = 0
KPD4 242257Z 27011KT 31/03 A297 RMK A01 T03080032  RH  017%=      5-min Rain = 0
KPD4 242258Z 27011KT 31/03 A297 RMK A01 T03080033  RH  017%=      5-min Rain = 0
KPD4 242259Z 26006KT 31/03 A297 RMK A01 T03060033  RH  018%=      5-min Rain = 0
KPD4 242300Z 23006KT 31/04 A297 RMK A01 T03050039  RH  018%=      5-min Rain = 0
KPD4 242301Z 24008KT 31/04 A297 RMK A01 T03070044  RH  019%=      5-min Rain = 0
KPD4 242302Z 22010KT 31/04 A297 RMK A01 T03080039  RH  018%=      5-min Rain = 0
KPD4 242303Z 23011KT 31/04 A297 RMK A01 T03080040  RH  018%=      5-min Rain = 0
KPD4 242304Z 23010KT 31/04 A297 RMK A01 T03070037  RH  018%=      5-min Rain = 0
KPD4 242305Z 22009KT 31/04 A297 RMK A01 T03060037  RH  018%=      5-min Rain = 0
KPD4 242306Z 22007KT 31/04 A297 RMK A01 T03050039  RH  019%=      5-min Rain = 0
KPD4 242307Z 22009KT 31/04 A297 RMK A01 T03050042  RH  019%=      5-min Rain = 0
KPD4 242308Z 23009KT 31/04 A297 RMK A01 T03050044  RH  019%=      5-min Rain = 0
KPD4 242309Z 24008KT 30/05 A297 RMK A01 T03040045  RH  019%=      5-min Rain = 0
KPD4 242310Z 24007KT 30/05 A297 RMK A01 T03030046  RH  020%=      5-min Rain = 0
KPD4 242311Z 23006KT 30/05 A297 RMK A01 T03030050  RH  020%=      5-min Rain = 0
KPD4 242312Z 23007KT 30/05 A297 RMK A01 T03030052  RH  021%=      5-min Rain = 0
KPD4 242313Z 23009KT 30/05 A297 RMK A01 T03040054  RH  021%=      5-min Rain = 0
KPD4 242314Z 22008KT 30/05 A297 RMK A01 T03040052  RH  020%=      5-min Rain = 0
KPD4 242315Z 21009KT 30/05 A297 RMK A01 T03040053  RH  021%=      5-min Rain = 0
KPD4 242316Z 21008KT 30/05 A297 RMK A01 T03030053  RH  021%=      5-min Rain = 0
KPD4 242317Z 21007KT 30/05 A297 RMK A01 T03020050  RH  020%=      5-min Rain = 0
KPD4 242318Z 21007KT 30/05 A297 RMK A01 T03000051  RH  021%=      5-min Rain = 0
KPD4 242319Z 23006KT 30/05 A2969 RMK A01 T02990052  RH  021%=      5-min Rain = 0
KPD4 242320Z 22007KT 30/05 A2969 RMK A01 T02990052  RH  021%=      5-min Rain = 0
KPD4 242321Z 23008KT 30/05 A2969 RMK A01 T02990053  RH  021%=      5-min Rain = 0
KPD4 242322Z 23008KT 30/05 A2969 RMK A01 T02980053  RH  021%=      5-min Rain = 0
KPD4 242323Z 22008KT 30/05 A2969 RMK A01 T02970052  RH  021%=      5-min Rain = 0
KPD4 242324Z 22009KT 30/05 A2969 RMK A01 T02960047  RH  021%=      5-min Rain = 0
KPD4 242325Z 23008KT 30/05 A2968 RMK A01 T02950047  RH  021%=      5-min Rain = 0
KPD4 242326Z 24010KT 30/05 A2968 RMK A01 T02950047  RH  021%=      5-min Rain = 0
KPD4 242327Z 24012KT 29/04 A2968 RMK A01 T02940041  RH  020%=      5-min Rain = 0
KPD4 242328Z 25012KT 29/04 A2968 RMK A01 T02940040  RH  020%=      5-min Rain = 0
KPD4 242329Z 24010KT 29/04 A2967 RMK A01 T02930040  RH  020%=      5-min Rain = 0
KPD4 242330Z 25011KT 29/04 A2967 RMK A01 T02920040  RH  020%=      5-min Rain = 0
KPD4 242331Z 25010KT 29/04 A2967 RMK A01 T02910038  RH  020%=      5-min Rain = 0
KPD4 242332Z 25010KT 29/03 A2966 RMK A01 T02910034  RH  019%=      5-min Rain = 0
KPD4 242333Z 26009KT 29/03 A2966 RMK A01 T02900034  RH  019%=      5-min Rain = 0
KPD4 242334Z 26010KT 29/04 A2966 RMK A01 T02890035  RH  020%=      5-min Rain = 0
KPD4 242335Z 26010KT 29/04 A2965 RMK A01 T02890036  RH  020%=      5-min Rain = 0
KPD4 242336Z 26009KT 29/04 A2965 RMK A01 T02880038  RH  020%=      5-min Rain = 0
KPD4 242337Z 26010KT 29/04 A2965 RMK A01 T02870038  RH  020%=      5-min Rain = 0
KPD4 242338Z 26010KT 29/04 A2965 RMK A01 T02870038  RH  020%=      5-min Rain = 0
KPD4 242339Z 26009KT 29/04 A2965 RMK A01 T02860037  RH  020%=      5-min Rain = 0
KPD4 242340Z 25009KT 29/04 A2965 RMK A01 T02860039  RH  021%=      5-min Rain = 0
KPD4 242341Z 25009KT 29/04 A2965 RMK A01 T02850039  RH  021%=      5-min Rain = 0
KPD4 242342Z 25009KT 28/04 A2966 RMK A01 T02840040  RH  021%=      5-min Rain = 0
KPD4 242343Z 25009KT 28/04 A2965 RMK A01 T02830040  RH  021%=      5-min Rain = 0
KPD4 242344Z 25008KT 28/04 A2965 RMK A01 T02830041  RH  021%=      5-min Rain = 0
KPD4 242345Z 26008KT 28/04 A2965 RMK A01 T02820041  RH  021%=      5-min Rain = 0
KPD4 242346Z 26008KT 28/04 A2965 RMK A01 T02820041  RH  021%=      5-min Rain = 0
KPD4 242347Z 26008KT 28/04 A2966 RMK A01 T02810041  RH  022%=      5-min Rain = 0
KPD4 242348Z 26008KT 28/04 A2966 RMK A01 T02810042  RH  022%=      5-min Rain = 0
KPD4 242349Z 26007KT 28/04 A2966 RMK A01 T02800042  RH  022%=      5-min Rain = 0
KPD4 242350Z 27006KT 28/04 A2966 RMK A01 T02790042  RH  022%=      5-min Rain = 0
KPD4 242351Z 27005KT 28/04 A2966 RMK A01 T02790043  RH  022%=      5-min Rain = 0
KPD4 242352Z 27006KT 28/04 A2966 RMK A01 T02770044  RH  022%=      5-min Rain = 0
KPD4 242353Z 27006KT 28/05 A2967 RMK A01 T02760045  RH  023%=      5-min Rain = 0
KPD4 242354Z 28005KT 28/05 A2967 RMK A01 T02760047  RH  023%=      5-min Rain = 0
KPD4 242355Z 28005KT 28/05 A2967 RMK A01 T02750048  RH  023%=      5-min Rain = 0
KPD4 242356Z 28005KT 28/05 A2967 RMK A01 T02750049  RH  024%=      5-min Rain = 0
KPD4 242357Z 28005KT 27/05 A2967 RMK A01 T02740050  RH  024%=      5-min Rain = 0
KPD4 242358Z 29005KT 27/05 A2967 RMK A01 T02740052  RH  024%=      5-min Rain = 0
KPD4 242359Z 29006KT 27/05 A2967 RMK A01 T02740053  RH  025%=      5-min Rain = 0
KPD4 250000Z 28006KT 27/05 A2967 RMK A01 T02730054  RH  025%=      5-min Rain = 0
KPD4 250001Z 29006KT 27/05 A2967 RMK A01 T02730054  RH  025%=      5-min Rain = 0
KPD4 250002Z 29005KT 27/05 A2967 RMK A01 T02720054  RH  025%=      5-min Rain = 0
KPD4 250003Z 30005KT 27/05 A2967 RMK A01 T02720054  RH  025%=      5-min Rain = 0
KPD4 250004Z 30005KT 27/06 A2967 RMK A01 T02720055  RH  025%=      5-min Rain = 0
KPD4 250005Z 30005KT 27/06 A2967 RMK A01 T02720055  RH  025%=      5-min Rain = 0
KPD4 250006Z 30005KT 27/06 A2967 RMK A01 T02710055  RH  025%=      5-min Rain = 0
KPD4 250007Z 30005KT 27/06 A2967 RMK A01 T02700056  RH  025%=      5-min Rain = 0
KPD4 250008Z 30005KT 27/06 A2967 RMK A01 T02700056  RH  026%=      5-min Rain = 0
KPD4 250009Z 30004KT 27/06 A2967 RMK A01 T02690057  RH  026%=      5-min Rain = 0
KPD4 250010Z 30004KT 27/06 A2967 RMK A01 T02690058  RH  026%=      5-min Rain = 0
KPD4 250011Z 30004KT 27/06 A2967 RMK A01 T02690058  RH  026%=      5-min Rain = 0
KPD4 250012Z 31004KT 27/06 A2967 RMK A01 T02690058  RH  026%=      5-min Rain = 0
KPD4 250013Z 31004KT 27/06 A2967 RMK A01 T02700059  RH  026%=      5-min Rain = 0
KPD4 250014Z 32003KT 27/06 A2967 RMK A01 T02700059  RH  026%=      5-min Rain = 0
KPD4 250015Z 33004KT 27/06 A2967 RMK A01 T02700059  RH  026%=      5-min Rain = 0
KPD4 250016Z 33004KT 27/06 A2967 RMK A01 T02700059  RH  026%=      5-min Rain = 0
KPD4 250017Z 33004KT 27/06 A2967 RMK A01 T02700058  RH  026%=      5-min Rain = 0
KPD4 250018Z 34004KT 27/06 A2967 RMK A01 T02700059  RH  026%=      5-min Rain = 0
KPD4 250019Z 33004KT 27/06 A2967 RMK A01 T02700059  RH  026%=      5-min Rain = 0
KPD4 250020Z 33004KT 27/06 A2967 RMK A01 T02700059  RH  026%=      5-min Rain = 0
KPD4 250021Z 33004KT 27/06 A2967 RMK A01 T02690058  RH  026%=      5-min Rain = 0
KPD4 250022Z 33003KT 27/06 A2967 RMK A01 T02690058  RH  026%=      5-min Rain = 0
KPD4 250023Z 33003KT 27/06 A2967 RMK A01 T02690058  RH  026%=      5-min Rain = 0
KPD4 250024Z 33003KT 27/06 A2967 RMK A01 T02690058  RH  026%=      5-min Rain = 0
KPD4 250025Z 34003KT 27/06 A2967 RMK A01 T02690057  RH  026%=      5-min Rain = 0
KPD4 250026Z 34003KT 27/06 A2967 RMK A01 T02690057  RH  026%=      5-min Rain = 0
KPD4 250027Z 34004KT 27/06 A2967 RMK A01 T02690056  RH  026%=      5-min Rain = 0
KPD4 250028Z 33004KT 27/06 A2967 RMK A01 T02690056  RH  026%=      5-min Rain = 0
KPD4 250029Z 33004KT 27/06 A2967 RMK A01 T02690056  RH  026%=      5-min Rain = 0
KPD4 250030Z 33003KT 27/06 A2968 RMK A01 T02690056  RH  026%=      5-min Rain = 0
KPD4 250031Z 33003KT 27/06 A2968 RMK A01 T02690055  RH  025%=      5-min Rain = 0
KPD4 250032Z 33003KT 27/06 A2968 RMK A01 T02700055  RH  025%=      5-min Rain = 0
KPD4 250033Z 33002KT 27/06 A2968 RMK A01 T02700055  RH  025%=      5-min Rain = 0
KPD4 250034Z 32003KT 27/06 A2968 RMK A01 T02700055  RH  025%=      5-min Rain = 0
KPD4 250035Z 33003KT 27/06 A2968 RMK A01 T02700055  RH  025%=      5-min Rain = 0
KPD4 250036Z 34003KT 27/06 A2968 RMK A01 T02700055  RH  025%=      5-min Rain = 0
KPD4 250037Z 34003KT 27/06 A2968 RMK A01 T02700055  RH  025%=      5-min Rain = 0
KPD4 250038Z 34004KT 27/06 A2967 RMK A01 T02690055  RH  025%=      5-min Rain = 0
KPD4 250039Z 35004KT 27/06 A2967 RMK A01 T02690055  RH  025%=      5-min Rain = 0
KPD4 250040Z 35003KT 27/06 A2967 RMK A01 T02690056  RH  026%=      5-min Rain = 0
KPD4 250041Z 34003KT 27/06 A2967 RMK A01 T02680055  RH  026%=      5-min Rain = 0
KPD4 250042Z 35003KT 27/05 A2967 RMK A01 T02670054  RH  026%=      5-min Rain = 0
KPD4 250043Z 36003KT 27/06 A2967 RMK A01 T02670055  RH  026%=      5-min Rain = 0
KPD4 250044Z 00002KT 27/05 A2967 RMK A01 T02670054  RH  026%=      5-min Rain = 0
KPD4 250045Z 02002KT 27/05 A2967 RMK A01 T02670054  RH  026%=      5-min Rain = 0
KPD4 250046Z 05001KT 27/05 A2968 RMK A01 T02670052  RH  025%=      5-min Rain = 0
KPD4 250047Z 11003KT 27/05 A2968 RMK A01 T02680051  RH  025%=      5-min Rain = 0
KPD4 250048Z 15010KT 27/06 A2968 RMK A01 T02690059  RH  026%=      5-min Rain = 0
KPD4 250049Z 16011G18KT 26/07 A2968 RMK A01 T02610068  RH  029%=      5-min Rain = 0
KPD4 250050Z 16013KT 25/08 A2968 RMK A01 T02530082  RH  034%=      5-min Rain = 0
KPD4 250051Z 16011KT 25/09 A2968 RMK A01 T02480085  RH  035%=      5-min Rain = 0
KPD4 250052Z 16010KT 24/09 A2968 RMK A01 T02440086  RH  036%=      5-min Rain = 0
KPD4 250053Z 14009KT 24/09 A2968 RMK A01 T02430088  RH  037%=      5-min Rain = 0
KPD4 250054Z 14012G17KT 24/09 A2968 RMK A01 T02420088  RH  037%=      5-min Rain = 0
KPD4 250055Z 16011KT 24/09 A2968 RMK A01 T02400087  RH  038%=      5-min Rain = 0
KPD4 250056Z 15015G20KT 24/09 A2968 RMK A01 T02380086  RH  038%=      5-min Rain = 0
KPD4 250057Z 16016KT 24/08 A2968 RMK A01 T02370084  RH  038%=      5-min Rain = 0
KPD4 250058Z 17015KT 24/09 A2968 RMK A01 T02350085  RH  038%=      5-min Rain = 0
KPD4 250059Z 16016KT 23/09 A2968 RMK A01 T02340086  RH  039%=      5-min Rain = 0
KPD4 250100Z 15014KT 23/09 A2968 RMK A01 T02330086  RH  039%=      5-min Rain = 0
KPD4 250101Z 16014KT 23/09 A2968 RMK A01 T02310086  RH  039%=      5-min Rain = 0
KPD4 250102Z 15014KT 23/09 A2969 RMK A01 T02300086  RH  040%=      5-min Rain = 0
KPD4 250103Z 15011KT 23/09 A2969 RMK A01 T02290086  RH  040%=      5-min Rain = 0
KPD4 250104Z 15008KT 23/09 A2969 RMK A01 T02280086  RH  040%=      5-min Rain = 0
KPD4 250105Z 15007KT 23/09 A2969 RMK A01 T02280086  RH  040%=      5-min Rain = 0
KPD4 250106Z 16007KT 23/09 A2969 RMK A01 T02270086  RH  041%=      5-min Rain = 0
KPD4 250107Z 16009KT 23/09 A2969 RMK A01 T02260086  RH  041%=      5-min Rain = 0
KPD4 250108Z 17009KT 23/09 A2969 RMK A01 T02250085  RH  041%=      5-min Rain = 0
KPD4 250109Z 17009KT 23/09 A2969 RMK A01 T02250085  RH  041%=      5-min Rain = 0
KPD4 250110Z 18008KT 22/09 A2969 RMK A01 T02240085  RH  041%=      5-min Rain = 0
KPD4 250111Z 17007KT 22/09 A2969 RMK A01 T02240085  RH  041%=      5-min Rain = 0
KPD4 250112Z 18006KT 22/09 A2969 RMK A01 T02240085  RH  041%=      5-min Rain = 0
KPD4 250113Z 19007KT 22/09 A2969 RMK A01 T02230085  RH  041%=      5-min Rain = 0
KPD4 250114Z 19008KT 22/08 A2969 RMK A01 T02230084  RH  041%=      5-min Rain = 0
KPD4 250115Z 19007KT 22/08 A2969 RMK A01 T02220084  RH  041%=      5-min Rain = 0
KPD4 250116Z 18007KT 22/08 A2969 RMK A01 T02220084  RH  041%=      5-min Rain = 0
KPD4 250117Z 18007KT 22/08 A2969 RMK A01 T02220084  RH  041%=      5-min Rain = 0
KPD4 250118Z 18008KT 22/08 A2969 RMK A01 T02210084  RH  041%=      5-min Rain = 0
KPD4 250119Z 18007KT 22/08 A2969 RMK A01 T02210084  RH  041%=      5-min Rain = 0
KPD4 250120Z 17006KT 22/09 A2969 RMK A01 T02210085  RH  042%=      5-min Rain = 0
KPD4 250121Z 18006KT 22/08 A2969 RMK A01 T02210084  RH  041%=      5-min Rain = 0
KPD4 250122Z 18006KT 22/08 A2969 RMK A01 T02210084  RH  041%=      5-min Rain = 0
KPD4 250123Z 18006KT 22/08 A2969 RMK A01 T02210084  RH  041%=      5-min Rain = 0
KPD4 250124Z 18006KT 22/08 A2969 RMK A01 T02210084  RH  041%=      5-min Rain = 0
KPD4 250125Z 18006KT 22/09 A2969 RMK A01 T02210085  RH  041%=      5-min Rain = 0
KPD4 250126Z 17005KT 22/09 A2968 RMK A01 T02210085  RH  042%=      5-min Rain = 0
KPD4 250127Z 18004KT 22/09 A2968 RMK A01 T02210085  RH  042%=      5-min Rain = 0
KPD4 250128Z 17004KT 22/09 A2968 RMK A01 T02200085  RH  042%=      5-min Rain = 0
KPD4 250129Z 17003KT 22/09 A2968 RMK A01 T02200085  RH  042%=      5-min Rain = 0
KPD4 250130Z 16004KT 22/09 A2968 RMK A01 T02190085  RH  042%=      5-min Rain = 0
KPD4 250131Z 16004KT 22/09 A2968 RMK A01 T02190085  RH  042%=      5-min Rain = 0
KPD4 250132Z 17005KT 22/09 A2968 RMK A01 T02190086  RH  043%=      5-min Rain = 0
KPD4 250133Z 16005KT 22/09 A2968 RMK A01 T02180086  RH  043%=      5-min Rain = 0
KPD4 250134Z 17005KT 22/09 A2968 RMK A01 T02180086  RH  043%=      5-min Rain = 0
KPD4 250135Z 17005KT 22/09 A2968 RMK A01 T02180086  RH  043%=      5-min Rain = 0
KPD4 250136Z 17007KT 22/09 A2968 RMK A01 T02180087  RH  043%=      5-min Rain = 0
KPD4 250137Z 17006KT 22/09 A2968 RMK A01 T02180087  RH  043%=      5-min Rain = 0
KPD4 250138Z 17006KT 22/09 A2968 RMK A01 T02180087  RH  043%=      5-min Rain = 0
KPD4 250139Z 17005KT 22/09 A2968 RMK A01 T02180087  RH  043%=      5-min Rain = 0
KPD4 250140Z 18006KT 22/09 A2968 RMK A01 T02180086  RH  043%=      5-min Rain = 0
KPD4 250141Z 18006KT 22/09 A2968 RMK A01 T02180087  RH  043%=      5-min Rain = 0
KPD4 250142Z 18005KT 22/09 A2968 RMK A01 T02180086  RH  043%=      5-min Rain = 0
KPD4 250143Z 18004KT 22/09 A2968 RMK A01 T02180087  RH  043%=      5-min Rain = 0
KPD4 250144Z 18004KT 22/09 A2968 RMK A01 T02180087  RH  043%=      5-min Rain = 0
KPD4 250145Z 18004KT 22/09 A2968 RMK A01 T02180086  RH  043%=      5-min Rain = 0
KPD4 250146Z 17004KT 22/09 A2968 RMK A01 T02180086  RH  043%=      5-min Rain = 0
KPD4 250147Z 15005KT 22/09 A2968 RMK A01 T02180086  RH  043%=      5-min Rain = 0
KPD4 250148Z 16005KT 22/09 A2968 RMK A01 T02190085  RH  042%=      5-min Rain = 0
KPD4 250149Z 16006KT 22/08 A2968 RMK A01 T02190084  RH  042%=      5-min Rain = 0
KPD4 250150Z 16006KT 22/09 A2968 RMK A01 T02200085  RH  042%=      5-min Rain = 0
KPD4 250151Z 15006KT 22/08 A2968 RMK A01 T02200084  RH  042%=      5-min Rain = 0
KPD4 250152Z 15007KT 22/08 A2969 RMK A01 T02200084  RH  041%=      5-min Rain = 0
KPD4 250153Z 15006KT 22/08 A2969 RMK A01 T02210084  RH  041%=      5-min Rain = 0
KPD4 250154Z 14005KT 22/09 A2969 RMK A01 T02220085  RH  041%=      5-min Rain = 0
KPD4 250155Z 14006KT 22/09 A2969 RMK A01 T02220085  RH  041%=      5-min Rain = 0
KPD4 250156Z 13006KT 22/09 A2969 RMK A01 T02220085  RH  041%=      5-min Rain = 0
KPD4 250157Z 13006KT 22/08 A297 RMK A01 T02210084  RH  041%=      5-min Rain = 0
KPD4 250158Z 12007KT 22/08 A297 RMK A01 T02210084  RH  041%=      5-min Rain = 0
KPD4 250159Z 12006KT 22/08 A297 RMK A01 T02210084  RH  041%=      5-min Rain = 0
KPD4 250200Z 13006KT 22/08 A297 RMK A01 T02210084  RH  041%=      5-min Rain = 0
KPD4 250201Z 12005KT 22/09 A297 RMK A01 T02210085  RH  042%=      5-min Rain = 0
KPD4 250202Z 12004KT 22/09 A297 RMK A01 T02200085  RH  042%=      5-min Rain = 0
KPD4 250203Z 11005KT 22/09 A297 RMK A01 T02190086  RH  042%=      5-min Rain = 0
KPD4 250204Z 12005KT 22/09 A297 RMK A01 T02190085  RH  042%=      5-min Rain = 0
KPD4 250205Z 13004KT 22/09 A297 RMK A01 T02190085  RH  042%=      5-min Rain = 0
KPD4 250206Z 14004KT 22/09 A297 RMK A01 T02190085  RH  042%=      5-min Rain = 0
KPD4 250207Z 15004KT 22/09 A297 RMK A01 T02190085  RH  042%=      5-min Rain = 0
KPD4 250208Z 17004KT 22/09 A297 RMK A01 T02180086  RH  043%=      5-min Rain = 0
KPD4 250209Z 18004KT 22/09 A297 RMK A01 T02180086  RH  043%=      5-min Rain = 0
KPD4 250210Z 19003KT 22/09 A297 RMK A01 T02160086  RH  043%=      5-min Rain = 0
KPD4 250211Z 16003KT 22/09 A297 RMK A01 T02150086  RH  043%=      5-min Rain = 0
KPD4 250212Z 13003KT 22/09 A297 RMK A01 T02150086  RH  044%=      5-min Rain = 0
KPD4 250213Z 12002KT 22/09 A297 RMK A01 T02150086  RH  044%=      5-min Rain = 0
KPD4 250214Z 11003KT 22/09 A297 RMK A01 T02150085  RH  043%=      5-min Rain = 0
KPD4 250215Z 12003KT 22/09 A297 RMK A01 T02150086  RH  043%=      5-min Rain = 0
KPD4 250216Z 11005KT 22/09 A297 RMK A01 T02150085  RH  043%=      5-min Rain = 0
KPD4 250217Z 10005KT 22/09 A297 RMK A01 T02160085  RH  043%=      5-min Rain = 0
KPD4 250218Z 09006KT 22/09 A297 RMK A01 T02160085  RH  043%=      5-min Rain = 0
KPD4 250219Z 09006KT 22/08 A297 RMK A01 T02160084  RH  043%=      5-min Rain = 0
KPD4 250220Z 10007KT 22/08 A297 RMK A01 T02180082  RH  042%=      5-min Rain = 0
KPD4 250221Z 10007KT 22/08 A297 RMK A01 T02210082  RH  041%=      5-min Rain = 0
KPD4 250222Z 11005KT 22/08 A297 RMK A01 T02230082  RH  040%=      5-min Rain = 0
KPD4 250223Z 12005KT 22/08 A297 RMK A01 T02240084  RH  041%=      5-min Rain = 0
KPD4 250224Z 14004KT 22/08 A297 RMK A01 T02230084  RH  041%=      5-min Rain = 0
KPD4 250225Z 17004KT 22/09 A2971 RMK A01 T02220085  RH  041%=      5-min Rain = 0
KPD4 250226Z 19005KT 22/09 A2971 RMK A01 T02200086  RH  042%=      5-min Rain = 0
KPD4 250227Z 20004KT 22/09 A2971 RMK A01 T02180087  RH  043%=      5-min Rain = 0
KPD4 250228Z 19004KT 22/09 A2971 RMK A01 T02170086  RH  043%=      5-min Rain = 0
KPD4 250229Z 18003KT 22/09 A2971 RMK A01 T02160087  RH  043%=      5-min Rain = 0
KPD4 250230Z 17003KT 22/09 A2971 RMK A01 T02150086  RH  044%=      5-min Rain = 0
KPD4 250231Z 16003KT 22/09 A2971 RMK A01 T02150085  RH  043%=      5-min Rain = 0
KPD4 250232Z 18003KT 22/09 A2971 RMK A01 T02160085  RH  043%=      5-min Rain = 0
KPD4 250233Z 18005KT 22/09 A2972 RMK A01 T02170086  RH  043%=      5-min Rain = 0
KPD4 250234Z 17004KT 22/09 A2972 RMK A01 T02170086  RH  043%=      5-min Rain = 0
KPD4 250235Z 21002KT 22/09 A2972 RMK A01 T02170087  RH  043%=      5-min Rain = 0
KPD4 250236Z 17002KT 22/09 A2972 RMK A01 T02160087  RH  043%=      5-min Rain = 0
KPD4 250237Z 13002KT 22/09 A2973 RMK A01 T02160086  RH  043%=      5-min Rain = 0
KPD4 250238Z 11000KT 22/09 A2973 RMK A01 T02160085  RH  043%=      5-min Rain = 0
KPD4 250239Z 08000KT 22/08 A2973 RMK A01 T02160084  RH  043%=      5-min Rain = 0
KPD4 250240Z 12002KT 22/08 A2973 RMK A01 T02170084  RH  043%=      5-min Rain = 0
KPD4 250241Z 01001KT 22/08 A2973 RMK A01 T02180083  RH  042%=      5-min Rain = 0
KPD4 250242Z 01001KT 22/08 A2973 RMK A01 T02180082  RH  042%=      5-min Rain = 0
KPD4 250243Z 01001KT 22/08 A2973 RMK A01 T02180082  RH  041%=      5-min Rain = 0
KPD4 250244Z 34001KT 22/08 A2973 RMK A01 T02200082  RH  041%=      5-min Rain = 0
KPD4 250245Z 35002KT 22/08 A2973 RMK A01 T02190082  RH  041%=      5-min Rain = 0
KPD4 250246Z 34002KT 22/08 A2973 RMK A01 T02210081  RH  041%=      5-min Rain = 0
KPD4 250247Z 33004KT 22/08 A2973 RMK A01 T02210082  RH  041%=      5-min Rain = 0
KPD4 250248Z 33003KT 22/08 A2974 RMK A01 T02220082  RH  041%=      5-min Rain = 0
KPD4 250249Z 31002KT 22/08 A2974 RMK A01 T02220082  RH  040%=      5-min Rain = 0
KPD4 250250Z 31003KT 22/08 A2974 RMK A01 T02220080  RH  040%=      5-min Rain = 0
KPD4 250251Z 32003KT 22/08 A2974 RMK A01 T02220082  RH  040%=      5-min Rain = 0
KPD4 250252Z 33002KT 22/08 A2974 RMK A01 T02220082  RH  041%=      5-min Rain = 0
KPD4 250253Z 33002KT 22/08 A2974 RMK A01 T02210080  RH  040%=      5-min Rain = 0
KPD4 250254Z 23001KT 22/08 A2974 RMK A01 T02210080  RH  040%=      5-min Rain = 0
KPD4 250255Z 25003KT 22/08 A2974 RMK A01 T02200081  RH  041%=      5-min Rain = 0
KPD4 250256Z 25003KT 22/08 A2974 RMK A01 T02200081  RH  041%=      5-min Rain = 0
KPD4 250257Z 24003KT 22/08 A2974 RMK A01 T02190081  RH  041%=      5-min Rain = 0
KPD4 250258Z 25002KT 22/08 A2974 RMK A01 T02170082  RH  042%=      5-min Rain = 0
KPD4 250259Z 25001KT 22/08 A2974 RMK A01 T02160081  RH  042%=      5-min Rain = 0
KPD4 250300Z 11000KT 22/08 A2974 RMK A01 T02160081  RH  042%=      5-min Rain = 0
KPD4 250301Z 12000KT 22/08 A2974 RMK A01 T02160081  RH  042%=      5-min Rain = 0
KPD4 250302Z 35001KT 22/08 A2974 RMK A01 T02160080  RH  041%=      5-min Rain = 0
KPD4 250303Z 35005KT 22/08 A2974 RMK A01 T02160080  RH  042%=      5-min Rain = 0
KPD4 250304Z 34007KT 22/08 A2974 RMK A01 T02160082  RH  042%=      5-min Rain = 0
KPD4 250305Z 34008KT 21/08 A2974 RMK A01 T02140083  RH  043%=      5-min Rain = 0
KPD4 250306Z 33007KT 21/08 A2974 RMK A01 T02120083  RH  043%=      5-min Rain = 0
KPD4 250307Z 34007KT 21/08 A2974 RMK A01 T02120082  RH  043%=      5-min Rain = 0
KPD4 250308Z 34006KT 21/08 A2974 RMK A01 T02130082  RH  043%=      5-min Rain = 0
KPD4 250309Z 34007KT 21/08 A2974 RMK A01 T02130083  RH  043%=      5-min Rain = 0
KPD4 250310Z 33007KT 21/08 A2974 RMK A01 T02120083  RH  043%=      5-min Rain = 0
KPD4 250311Z 33006KT 21/08 A2974 RMK A01 T02130082  RH  043%=      5-min Rain = 0
KPD4 250312Z 33006KT 21/08 A2974 RMK A01 T02140082  RH  043%=      5-min Rain = 0
KPD4 250313Z 34006KT 21/08 A2974 RMK A01 T02140082  RH  043%=      5-min Rain = 0
KPD4 250314Z 33007KT 21/08 A2973 RMK A01 T02140082  RH  043%=      5-min Rain = 0
KPD4 250315Z 35006KT 21/08 A2973 RMK A01 T02130081  RH  043%=      5-min Rain = 0
KPD4 250316Z 35006KT 21/08 A2973 RMK A01 T02130081  RH  043%=      5-min Rain = 0
KPD4 250317Z 35007KT 21/08 A2973 RMK A01 T02130081  RH  043%=      5-min Rain = 0
KPD4 250318Z 36006KT 21/08 A2972 RMK A01 T02120079  RH  042%=      5-min Rain = 0
KPD4 250319Z 01007KT 21/08 A2972 RMK A01 T02130079  RH  042%=      5-min Rain = 0
KPD4 250320Z 01007KT 21/08 A2972 RMK A01 T02130079  RH  042%=      5-min Rain = 0
KPD4 250321Z 01009KT 21/08 A2972 RMK A01 T02130078  RH  042%=      5-min Rain = 0
KPD4 250322Z 00011KT 21/08 A2971 RMK A01 T02130079  RH  042%=      5-min Rain = 0
KPD4 250323Z 00010KT 22/08 A2971 RMK A01 T02150081  RH  042%=      5-min Rain = 0
KPD4 250324Z 01010KT 22/08 A297 RMK A01 T02160081  RH  042%=      5-min Rain = 0
KPD4 250325Z 02010KT 22/08 A297 RMK A01 T02160082  RH  042%=      5-min Rain = 0
KPD4 250326Z 02009KT 22/08 A297 RMK A01 T02160081  RH  042%=      5-min Rain = 0
KPD4 250327Z 03008KT 22/08 A297 RMK A01 T02150082  RH  042%=      5-min Rain = 0
KPD4 250328Z 04007KT 21/08 A2969 RMK A01 T02140082  RH  043%=      5-min Rain = 0
KPD4 250329Z 03007KT 21/08 A297 RMK A01 T02140082  RH  043%=      5-min Rain = 0
KPD4 250330Z 01007KT 21/08 A297 RMK A01 T02130082  RH  043%=      5-min Rain = 0
KPD4 250331Z 01008KT 21/08 A297 RMK A01 T02120083  RH  043%=      5-min Rain = 0
KPD4 250332Z 01009KT 21/08 A2971 RMK A01 T02120083  RH  043%=      5-min Rain = 0
KPD4 250333Z 01009KT 21/08 A2971 RMK A01 T02120083  RH  043%=      5-min Rain = 0
KPD4 250334Z 02010KT 21/08 A2971 RMK A01 T02120082  RH  043%=      5-min Rain = 0
KPD4 250335Z 03013KT 21/08 A2971 RMK A01 T02130084  RH  044%=      5-min Rain = 0
KPD4 250336Z 04013KT 21/09 A2971 RMK A01 T02120089  RH  045%=      5-min Rain = 0
KPD4 250337Z 04014KT 21/09 A2972 RMK A01 T02100091  RH  047%=      5-min Rain = 0
KPD4 250338Z 04015KT 21/09 A2972 RMK A01 T02080094  RH  048%=      5-min Rain = 0
KPD4 250339Z 04014KT 21/09 A2973 RMK A01 T02060094  RH  048%=      5-min Rain = 0
KPD4 250340Z 04013KT 21/09 A2973 RMK A01 T02050094  RH  049%=      5-min Rain = 0
KPD4 250341Z 05013KT 21/09 A2973 RMK A01 T02050094  RH  049%=      5-min Rain = 0
KPD4 250342Z 05013KT 21/09 A2974 RMK A01 T02050094  RH  049%=      5-min Rain = 0
KPD4 250343Z 05012KT 20/09 A2974 RMK A01 T02040094  RH  049%=      5-min Rain = 0
KPD4 250344Z 05014KT 20/09 A2975 RMK A01 T02040094  RH  049%=      5-min Rain = 0
KPD4 250345Z 05013KT 21/09 A2976 RMK A01 T02050093  RH  049%=      5-min Rain = 0
KPD4 250346Z 06012KT 21/09 A2976 RMK A01 T02050092  RH  048%=      5-min Rain = 0
KPD4 250347Z 06014KT 21/09 A2977 RMK A01 T02050091  RH  048%=      5-min Rain = 0
KPD4 250348Z 06015KT 21/09 A2977 RMK A01 T02060090  RH  047%=      5-min Rain = 0
KPD4 250349Z 06015KT 21/09 A2978 RMK A01 T02070090  RH  047%=      5-min Rain = 0
KPD4 250350Z 06014KT 21/09 A2978 RMK A01 T02070090  RH  047%=      5-min Rain = 0
KPD4 250351Z 06013KT 21/09 A2979 RMK A01 T02070091  RH  047%=      5-min Rain = 0
KPD4 250352Z 06014KT 21/09 A2979 RMK A01 T02060091  RH  047%=      5-min Rain = 0
KPD4 250353Z 06013KT 21/09 A2979 RMK A01 T02060091  RH  048%=      5-min Rain = 0
KPD4 250354Z 07013KT 21/09 A2979 RMK A01 T02060092  RH  048%=      5-min Rain = 0
KPD4 250355Z 07013KT 21/09 A2979 RMK A01 T02060092  RH  048%=      5-min Rain = 0
KPD4 250356Z 07013KT 21/09 A2979 RMK A01 T02060090  RH  047%=      5-min Rain = 0
KPD4 250357Z 07012KT 21/09 A2979 RMK A01 T02060090  RH  047%=      5-min Rain = 0
KPD4 250358Z 07011KT 21/09 A298 RMK A01 T02070086  RH  046%=      5-min Rain = 0
KPD4 250359Z 07011KT 21/08 A298 RMK A01 T02090084  RH  045%=      5-min Rain = 0
KPD4 250400Z 07011KT 21/08 A298 RMK A01 T02110083  RH  044%=      5-min Rain = 0
KPD4 250401Z 08011KT 21/08 A298 RMK A01 T02110083  RH  044%=      5-min Rain = 0
KPD4 250402Z 07009KT 21/09 A298 RMK A01 T02120085  RH  044%=      5-min Rain = 0
KPD4 250403Z 08009KT 21/09 A2981 RMK A01 T02110086  RH  045%=      5-min Rain = 0
KPD4 250404Z 08009KT 21/09 A2981 RMK A01 T02090087  RH  045%=      5-min Rain = 0
KPD4 250405Z 08008KT 21/09 A298 RMK A01 T02080087  RH  046%=      5-min Rain = 0
KPD4 250406Z 07009KT 21/09 A298 RMK A01 T02070087  RH  046%=      5-min Rain = 0
KPD4 250407Z 06009KT 21/09 A298 RMK A01 T02070089  RH  047%=      5-min Rain = 0
KPD4 250408Z 05010KT 21/09 A298 RMK A01 T02100094  RH  047%=      5-min Rain = 0
KPD4 250409Z 06009KT 21/10 A298 RMK A01 T02120096  RH  047%=      5-min Rain = 0
KPD4 250410Z 07009KT 21/09 A298 RMK A01 T02130093  RH  046%=      5-min Rain = 0
KPD4 250411Z 07008KT 21/09 A298 RMK A01 T02140092  RH  045%=      5-min Rain = 0
KPD4 250412Z 06007KT 21/09 A298 RMK A01 T02140091  RH  045%=      5-min Rain = 0
KPD4 250413Z 06008KT 21/09 A2979 RMK A01 T02130093  RH  046%=      5-min Rain = 0
KPD4 250414Z 05008KT 21/10 A2979 RMK A01 T02120097  RH  048%=      5-min Rain = 0
KPD4 250415Z 05008KT 21/10 A2979 RMK A01 T02120099  RH  048%=      5-min Rain = 0
KPD4 250416Z 05008KT 21/10 A2979 RMK A01 T02120099  RH  048%=      5-min Rain = 0
KPD4 250417Z 05007KT 21/10 A2978 RMK A01 T02120101  RH  049%=      5-min Rain = 0
KPD4 250418Z 05007KT 21/10 A2978 RMK A01 T02120104  RH  050%=      5-min Rain = 0
KPD4 250419Z 04007KT 21/11 A2978 RMK A01 T02110105  RH  050%=      5-min Rain = 0
KPD4 250420Z 04008KT 21/11 A2978 RMK A01 T02110105  RH  051%=      5-min Rain = 0
KPD4 250421Z 05007KT 21/11 A2978 RMK A01 T02110106  RH  051%=      5-min Rain = 0
KPD4 250422Z 05006KT 21/11 A2978 RMK A01 T02110105  RH  051%=      5-min Rain = 0
KPD4 250423Z 06007KT 21/11 A2978 RMK A01 T02110105  RH  051%=      5-min Rain = 0
KPD4 250424Z 06007KT 21/11 A2978 RMK A01 T02100105  RH  051%=      5-min Rain = 0
KPD4 250425Z 06008KT 21/11 A2978 RMK A01 T02090105  RH  051%=      5-min Rain = 0
KPD4 250426Z 06008KT 21/11 A2979 RMK A01 T02090106  RH  052%=      5-min Rain = 0
KPD4 250427Z 06009KT 21/11 A2979 RMK A01 T02090106  RH  052%=      5-min Rain = 0
KPD4 250428Z 06008KT 21/11 A2979 RMK A01 T02090106  RH  052%=      5-min Rain = 0
KPD4 250429Z 07008KT 21/10 A298 RMK A01 T02080104  RH  051%=      5-min Rain = 0
KPD4 250430Z 07009KT 21/10 A298 RMK A01 T02080102  RH  051%=      5-min Rain = 0
KPD4 250431Z 07011KT 21/10 A298 RMK A01 T02070098  RH  050%=      5-min Rain = 0
KPD4 250432Z 08010KT 21/10 A298 RMK A01 T02060096  RH  049%=      5-min Rain = 0
KPD4 250433Z 09009KT 21/10 A2981 RMK A01 T02050096  RH  050%=      5-min Rain = 0
KPD4 250434Z 08009KT 21/10 A2981 RMK A01 T02050097  RH  050%=      5-min Rain = 0
KPD4 250435Z 08010KT 20/10 A2981 RMK A01 T02040097  RH  050%=      5-min Rain = 0
KPD4 250436Z 09012KT 20/10 A2981 RMK A01 T02030097  RH  050%=      5-min Rain = 0
KPD4 250437Z 09012KT 20/10 A2982 RMK A01 T02030097  RH  051%=      5-min Rain = 0
KPD4 250438Z 08011KT 20/10 A2982 RMK A01 T02020097  RH  051%=      5-min Rain = 0
KPD4 250439Z 08010KT 20/10 A2982 RMK A01 T02010098  RH  051%=      5-min Rain = 0
KPD4 250440Z 07012KT 20/10 A2982 RMK A01 T02010098  RH  052%=      5-min Rain = 0
KPD4 250441Z 07015KT 20/10 A2982 RMK A01 T02000098  RH  052%=      5-min Rain = 0
KPD4 250442Z 06014KT 20/10 A2982 RMK A01 T01990098  RH  052%=      5-min Rain = 0
KPD4 250443Z 06014KT 20/10 A2983 RMK A01 T01990099  RH  052%=      5-min Rain = 0
KPD4 250444Z 06012KT 20/10 A2983 RMK A01 T01980099  RH  053%=      5-min Rain = 0
KPD4 250445Z 06011KT 20/10 A2983 RMK A01 T01970099  RH  053%=      5-min Rain = 0
KPD4 250446Z 07012KT 20/10 A2983 RMK A01 T01970100  RH  053%=      5-min Rain = 0
KPD4 250447Z 06010KT 20/10 A2983 RMK A01 T01960100  RH  054%=      5-min Rain = 0
KPD4 250448Z 06010KT 20/10 A2983 RMK A01 T01960100  RH  054%=      5-min Rain = 0
KPD4 250449Z 06008KT 20/10 A2984 RMK A01 T01950100  RH  054%=      5-min Rain = 0
KPD4 250450Z 06008KT 20/10 A2984 RMK A01 T01950101  RH  054%=      5-min Rain = 0
KPD4 250451Z 06006KT 19/10 A2984 RMK A01 T01940100  RH  055%=      5-min Rain = 0
KPD4 250452Z 06005KT 19/10 A2984 RMK A01 T01940100  RH  055%=      5-min Rain = 0
KPD4 250453Z 07006KT 19/10 A2984 RMK A01 T01940101  RH  055%=      5-min Rain = 0
KPD4 250454Z 06007KT 19/10 A2984 RMK A01 T01930100  RH  055%=      5-min Rain = 0
KPD4 250455Z 07009KT 19/10 A2984 RMK A01 T01930100  RH  055%=      5-min Rain = 0
KPD4 250456Z 07009KT 19/10 A2984 RMK A01 T01920100  RH  055%=      5-min Rain = 0
KPD4 250457Z 07010KT 19/10 A2985 RMK A01 T01920100  RH  055%=      5-min Rain = 0
KPD4 250458Z 07009KT 19/10 A2985 RMK A01 T01920100  RH  055%=      5-min Rain = 0
KPD4 250459Z 06009KT 19/10 A2985 RMK A01 T01920100  RH  055%=      5-min Rain = 0

Page generated in 0.2164 seconds.